<?xml version="1.0" encoding="UTF-8" standalone="no" ?>
<gpx xmlns="http://www.topografix.com/GPX/1/1" xmlns:xsi="http://www.w3.org/2001/XMLSchema-instance" xsi:schemaLocation="http://www.topografix.com/GPX/1/1 http://www.topografix.com/GPX/1/1/gpx.xsd" version="1.1" creator="VisuGPX - https://www.visugpx.com">
  <metadata>
    <name>Balisage GR 108 - Secteur 4 - 1ère partie</name>
    <desc><![CDATA[Balisage 1ère session]]></desc>
  </metadata>
  <wpt lat="42.96943" lon="-0.43764">
    <ele>623</ele>
    <name><![CDATA[Arbre couché sur piste]]></name>
    <desc><![CDATA[26-NOV-11 10:23:56]]></desc>
  </wpt>
  <wpt lat="42.96846" lon="-0.43778">
    <ele>650</ele>
    <name><![CDATA[Cable main courante HS]]></name>
    <desc><![CDATA[26-NOV-11 10:34:51]]></desc>
  </wpt>
  <wpt lat="42.96944" lon="-0.43869">
    <ele>434</ele>
    <name><![CDATA[Départ passerelle]]></name>
    <desc><![CDATA[26-NOV-11 10:15:46]]></desc>
  </wpt>
  <wpt lat="42.94941" lon="-0.44324">
    <ele>679</ele>
    <name><![CDATA[Pont d'enfer]]></name>
    <desc><![CDATA[26-NOV-11 14:54:00]]></desc>
  </wpt>
  <trk>
    <name><![CDATA[ACTIVE LOG 001]]></name>
    <trkseg>
      <trkpt lat="42.96943" lon="-0.43869">
        <ele>433.211304</ele>
        <time>2011-11-26T09:15:41Z</time>
      </trkpt>
      <trkpt lat="42.96943" lon="-0.43869">
        <ele>433.211304</ele>
        <time>2011-11-26T09:15:42Z</time>
      </trkpt>
      <trkpt lat="42.96944" lon="-0.43869">
        <ele>434.172607</ele>
        <time>2011-11-26T09:15:44Z</time>
      </trkpt>
      <trkpt lat="42.96951" lon="-0.43874">
        <ele>438.979126</ele>
        <time>2011-11-26T09:15:54Z</time>
      </trkpt>
      <trkpt lat="42.96952" lon="-0.43874">
        <ele>443.785767</ele>
        <time>2011-11-26T09:15:55Z</time>
      </trkpt>
      <trkpt lat="42.96952" lon="-0.43875">
        <ele>448.111816</ele>
        <time>2011-11-26T09:15:56Z</time>
      </trkpt>
      <trkpt lat="42.96952" lon="-0.43875">
        <ele>453.398926</ele>
        <time>2011-11-26T09:15:57Z</time>
      </trkpt>
      <trkpt lat="42.96952" lon="-0.43875">
        <ele>458.205566</ele>
        <time>2011-11-26T09:15:58Z</time>
      </trkpt>
      <trkpt lat="42.96953" lon="-0.43875">
        <ele>462.531372</ele>
        <time>2011-11-26T09:15:59Z</time>
      </trkpt>
      <trkpt lat="42.96954" lon="-0.43873">
        <ele>471.18335</ele>
        <time>2011-11-26T09:16:01Z</time>
      </trkpt>
      <trkpt lat="42.96954" lon="-0.43872">
        <ele>475.989868</ele>
        <time>2011-11-26T09:16:02Z</time>
      </trkpt>
      <trkpt lat="42.96953" lon="-0.43871">
        <ele>480.315918</ele>
        <time>2011-11-26T09:16:03Z</time>
      </trkpt>
      <trkpt lat="42.96953" lon="-0.43869">
        <ele>484.161133</ele>
        <time>2011-11-26T09:16:04Z</time>
      </trkpt>
      <trkpt lat="42.96952" lon="-0.43866">
        <ele>492.812988</ele>
        <time>2011-11-26T09:16:06Z</time>
      </trkpt>
      <trkpt lat="42.96951" lon="-0.43865">
        <ele>496.177734</ele>
        <time>2011-11-26T09:16:07Z</time>
      </trkpt>
      <trkpt lat="42.9695" lon="-0.43863">
        <ele>500.50354</ele>
        <time>2011-11-26T09:16:08Z</time>
      </trkpt>
      <trkpt lat="42.9695" lon="-0.43862">
        <ele>503.868164</ele>
        <time>2011-11-26T09:16:09Z</time>
      </trkpt>
      <trkpt lat="42.96949" lon="-0.4386">
        <ele>507.713501</ele>
        <time>2011-11-26T09:16:10Z</time>
      </trkpt>
      <trkpt lat="42.96948" lon="-0.43859">
        <ele>511.558716</ele>
        <time>2011-11-26T09:16:11Z</time>
      </trkpt>
      <trkpt lat="42.96948" lon="-0.43857">
        <ele>514.442627</ele>
        <time>2011-11-26T09:16:12Z</time>
      </trkpt>
      <trkpt lat="42.96946" lon="-0.43854">
        <ele>521.171997</ele>
        <time>2011-11-26T09:16:14Z</time>
      </trkpt>
      <trkpt lat="42.96946" lon="-0.43852">
        <ele>524.055786</ele>
        <time>2011-11-26T09:16:15Z</time>
      </trkpt>
      <trkpt lat="42.96945" lon="-0.43851">
        <ele>526.939819</ele>
        <time>2011-11-26T09:16:16Z</time>
      </trkpt>
      <trkpt lat="42.96942" lon="-0.43849">
        <ele>533.188354</ele>
        <time>2011-11-26T09:16:18Z</time>
      </trkpt>
      <trkpt lat="42.9694" lon="-0.43847">
        <ele>539.43689</ele>
        <time>2011-11-26T09:16:20Z</time>
      </trkpt>
      <trkpt lat="42.96939" lon="-0.43846">
        <ele>541.84021</ele>
        <time>2011-11-26T09:16:21Z</time>
      </trkpt>
      <trkpt lat="42.96936" lon="-0.43841">
        <ele>549.530762</ele>
        <time>2011-11-26T09:16:24Z</time>
      </trkpt>
      <trkpt lat="42.96935" lon="-0.43837">
        <ele>554.337402</ele>
        <time>2011-11-26T09:16:26Z</time>
      </trkpt>
      <trkpt lat="42.96935" lon="-0.43832">
        <ele>558.66333</ele>
        <time>2011-11-26T09:16:28Z</time>
      </trkpt>
      <trkpt lat="42.96934" lon="-0.43828">
        <ele>562.989258</ele>
        <time>2011-11-26T09:16:30Z</time>
      </trkpt>
      <trkpt lat="42.96933" lon="-0.43824">
        <ele>566.834473</ele>
        <time>2011-11-26T09:16:32Z</time>
      </trkpt>
      <trkpt lat="42.96933" lon="-0.4382">
        <ele>571.1604</ele>
        <time>2011-11-26T09:16:34Z</time>
      </trkpt>
      <trkpt lat="42.96933" lon="-0.43816">
        <ele>575.005859</ele>
        <time>2011-11-26T09:16:36Z</time>
      </trkpt>
      <trkpt lat="42.96933" lon="-0.43812">
        <ele>578.370361</ele>
        <time>2011-11-26T09:16:38Z</time>
      </trkpt>
      <trkpt lat="42.96936" lon="-0.43808">
        <ele>582.696289</ele>
        <time>2011-11-26T09:16:41Z</time>
      </trkpt>
      <trkpt lat="42.96939" lon="-0.43807">
        <ele>585.580078</ele>
        <time>2011-11-26T09:16:43Z</time>
      </trkpt>
      <trkpt lat="42.96942" lon="-0.43805">
        <ele>588.945068</ele>
        <time>2011-11-26T09:16:46Z</time>
      </trkpt>
      <trkpt lat="42.96944" lon="-0.43803">
        <ele>592.30957</ele>
        <time>2011-11-26T09:16:48Z</time>
      </trkpt>
      <trkpt lat="42.96945" lon="-0.43802">
        <ele>591.828857</ele>
        <time>2011-11-26T09:16:49Z</time>
      </trkpt>
      <trkpt lat="42.96947" lon="-0.43801">
        <ele>595.193359</ele>
        <time>2011-11-26T09:16:51Z</time>
      </trkpt>
      <trkpt lat="42.96951" lon="-0.43797">
        <ele>598.557861</ele>
        <time>2011-11-26T09:16:55Z</time>
      </trkpt>
      <trkpt lat="42.96955" lon="-0.43794">
        <ele>602.403076</ele>
        <time>2011-11-26T09:16:59Z</time>
      </trkpt>
      <trkpt lat="42.96956" lon="-0.43792">
        <ele>603.364502</ele>
        <time>2011-11-26T09:17:02Z</time>
      </trkpt>
      <trkpt lat="42.96955" lon="-0.43792">
        <ele>606.729248</ele>
        <time>2011-11-26T09:17:06Z</time>
      </trkpt>
      <trkpt lat="42.96957" lon="-0.43789">
        <ele>610.09375</ele>
        <time>2011-11-26T09:17:21Z</time>
      </trkpt>
      <trkpt lat="42.96961" lon="-0.43783">
        <ele>611.055176</ele>
        <time>2011-11-26T09:17:28Z</time>
      </trkpt>
      <trkpt lat="42.96962" lon="-0.43781">
        <ele>612.49707</ele>
        <time>2011-11-26T09:17:30Z</time>
      </trkpt>
      <trkpt lat="42.96961" lon="-0.43775">
        <ele>613.938965</ele>
        <time>2011-11-26T09:17:36Z</time>
      </trkpt>
      <trkpt lat="42.9696" lon="-0.43771">
        <ele>614.419678</ele>
        <time>2011-11-26T09:17:44Z</time>
      </trkpt>
      <trkpt lat="42.9696" lon="-0.43773">
        <ele>615.381104</ele>
        <time>2011-11-26T09:17:51Z</time>
      </trkpt>
      <trkpt lat="42.96963" lon="-0.43777">
        <ele>615.861816</ele>
        <time>2011-11-26T09:17:54Z</time>
      </trkpt>
      <trkpt lat="42.96967" lon="-0.43776">
        <ele>615.381104</ele>
        <time>2011-11-26T09:17:57Z</time>
      </trkpt>
      <trkpt lat="42.96972" lon="-0.43772">
        <ele>615.861816</ele>
        <time>2011-11-26T09:18:08Z</time>
      </trkpt>
      <trkpt lat="42.96965" lon="-0.43778">
        <ele>615.861816</ele>
        <time>2011-11-26T09:18:26Z</time>
      </trkpt>
      <trkpt lat="42.96967" lon="-0.43776">
        <ele>614.900391</ele>
        <time>2011-11-26T09:18:38Z</time>
      </trkpt>
      <trkpt lat="42.96973" lon="-0.4377">
        <ele>614.900391</ele>
        <time>2011-11-26T09:18:51Z</time>
      </trkpt>
      <trkpt lat="42.96968" lon="-0.43763">
        <ele>615.861816</ele>
        <time>2011-11-26T09:22:46Z</time>
      </trkpt>
      <trkpt lat="42.96964" lon="-0.43773">
        <ele>615.381104</ele>
        <time>2011-11-26T09:22:59Z</time>
      </trkpt>
      <trkpt lat="42.96954" lon="-0.43774">
        <ele>616.342285</ele>
        <time>2011-11-26T09:23:16Z</time>
      </trkpt>
      <trkpt lat="42.96949" lon="-0.43774">
        <ele>619.226318</ele>
        <time>2011-11-26T09:23:28Z</time>
      </trkpt>
      <trkpt lat="42.96949" lon="-0.43774">
        <ele>619.707031</ele>
        <time>2011-11-26T09:23:29Z</time>
      </trkpt>
      <trkpt lat="42.96944" lon="-0.43768">
        <ele>622.591064</ele>
        <time>2011-11-26T09:23:43Z</time>
      </trkpt>
      <trkpt lat="42.96954" lon="-0.43756">
        <ele>624.994385</ele>
        <time>2011-11-26T09:24:37Z</time>
      </trkpt>
      <trkpt lat="42.9696" lon="-0.43747">
        <ele>627.878174</ele>
        <time>2011-11-26T09:24:57Z</time>
      </trkpt>
      <trkpt lat="42.96962" lon="-0.43744">
        <ele>628.358887</ele>
        <time>2011-11-26T09:25:02Z</time>
      </trkpt>
      <trkpt lat="42.96971" lon="-0.43728">
        <ele>630.762207</ele>
        <time>2011-11-26T09:25:14Z</time>
      </trkpt>
      <trkpt lat="42.96967" lon="-0.4372">
        <ele>633.165283</ele>
        <time>2011-11-26T09:25:35Z</time>
      </trkpt>
      <trkpt lat="42.96958" lon="-0.43724">
        <ele>636.530273</ele>
        <time>2011-11-26T09:25:47Z</time>
      </trkpt>
      <trkpt lat="42.96951" lon="-0.43724">
        <ele>637.491455</ele>
        <time>2011-11-26T09:25:54Z</time>
      </trkpt>
      <trkpt lat="42.96963" lon="-0.43716">
        <ele>639.414062</ele>
        <time>2011-11-26T09:26:11Z</time>
      </trkpt>
      <trkpt lat="42.96977" lon="-0.43704">
        <ele>642.778809</ele>
        <time>2011-11-26T09:26:30Z</time>
      </trkpt>
      <trkpt lat="42.96986" lon="-0.43692">
        <ele>643.73999</ele>
        <time>2011-11-26T09:26:42Z</time>
      </trkpt>
      <trkpt lat="42.96987" lon="-0.43685">
        <ele>647.104492</ele>
        <time>2011-11-26T09:26:54Z</time>
      </trkpt>
      <trkpt lat="42.96977" lon="-0.4368">
        <ele>650.469238</ele>
        <time>2011-11-26T09:27:09Z</time>
      </trkpt>
      <trkpt lat="42.96973" lon="-0.43686">
        <ele>651.911133</ele>
        <time>2011-11-26T09:27:38Z</time>
      </trkpt>
      <trkpt lat="42.96959" lon="-0.43695">
        <ele>651.43042</ele>
        <time>2011-11-26T09:28:04Z</time>
      </trkpt>
      <trkpt lat="42.96974" lon="-0.43688">
        <ele>651.911133</ele>
        <time>2011-11-26T09:28:45Z</time>
      </trkpt>
      <trkpt lat="42.9698" lon="-0.43673">
        <ele>651.911133</ele>
        <time>2011-11-26T09:28:57Z</time>
      </trkpt>
      <trkpt lat="42.96981" lon="-0.43677">
        <ele>652.391846</ele>
        <time>2011-11-26T09:29:13Z</time>
      </trkpt>
      <trkpt lat="42.96964" lon="-0.43702">
        <ele>650.949707</ele>
        <time>2011-11-26T09:30:03Z</time>
      </trkpt>
      <trkpt lat="42.96964" lon="-0.43704">
        <ele>650.949707</ele>
        <time>2011-11-26T09:30:04Z</time>
      </trkpt>
      <trkpt lat="42.96963" lon="-0.43712">
        <ele>651.43042</ele>
        <time>2011-11-26T09:30:07Z</time>
      </trkpt>
      <trkpt lat="42.96961" lon="-0.43712">
        <ele>651.43042</ele>
        <time>2011-11-26T09:30:22Z</time>
      </trkpt>
      <trkpt lat="42.96963" lon="-0.43693">
        <ele>651.911133</ele>
        <time>2011-11-26T09:30:44Z</time>
      </trkpt>
      <trkpt lat="42.96974" lon="-0.4369">
        <ele>654.314697</ele>
        <time>2011-11-26T09:32:02Z</time>
      </trkpt>
      <trkpt lat="42.96953" lon="-0.43699">
        <ele>655.275879</ele>
        <time>2011-11-26T09:32:26Z</time>
      </trkpt>
      <trkpt lat="42.96947" lon="-0.43705">
        <ele>655.275879</ele>
        <time>2011-11-26T09:32:35Z</time>
      </trkpt>
      <trkpt lat="42.9694" lon="-0.43712">
        <ele>653.353271</ele>
        <time>2011-11-26T09:32:43Z</time>
      </trkpt>
      <trkpt lat="42.96927" lon="-0.43724">
        <ele>655.756592</ele>
        <time>2011-11-26T09:32:58Z</time>
      </trkpt>
      <trkpt lat="42.96916" lon="-0.43738">
        <ele>655.756592</ele>
        <time>2011-11-26T09:33:12Z</time>
      </trkpt>
      <trkpt lat="42.96909" lon="-0.43744">
        <ele>656.237061</ele>
        <time>2011-11-26T09:33:26Z</time>
      </trkpt>
      <trkpt lat="42.96894" lon="-0.43751">
        <ele>656.237061</ele>
        <time>2011-11-26T09:33:41Z</time>
      </trkpt>
      <trkpt lat="42.9688" lon="-0.43757">
        <ele>654.314697</ele>
        <time>2011-11-26T09:33:57Z</time>
      </trkpt>
      <trkpt lat="42.96872" lon="-0.43759">
        <ele>653.353271</ele>
        <time>2011-11-26T09:34:07Z</time>
      </trkpt>
      <trkpt lat="42.96859" lon="-0.43763">
        <ele>650.469238</ele>
        <time>2011-11-26T09:34:24Z</time>
      </trkpt>
      <trkpt lat="42.96849" lon="-0.43776">
        <ele>649.988525</ele>
        <time>2011-11-26T09:34:39Z</time>
      </trkpt>
      <trkpt lat="42.96843" lon="-0.4377">
        <ele>652.872559</ele>
        <time>2011-11-26T09:35:12Z</time>
      </trkpt>
      <trkpt lat="42.96841" lon="-0.43764">
        <ele>654.314697</ele>
        <time>2011-11-26T09:35:24Z</time>
      </trkpt>
      <trkpt lat="42.96838" lon="-0.43763">
        <ele>655.275879</ele>
        <time>2011-11-26T09:35:42Z</time>
      </trkpt>
      <trkpt lat="42.96833" lon="-0.43768">
        <ele>655.275879</ele>
        <time>2011-11-26T09:36:15Z</time>
      </trkpt>
      <trkpt lat="42.9683" lon="-0.4377">
        <ele>655.756592</ele>
        <time>2011-11-26T09:36:34Z</time>
      </trkpt>
      <trkpt lat="42.96823" lon="-0.43774">
        <ele>655.756592</ele>
        <time>2011-11-26T09:36:52Z</time>
      </trkpt>
      <trkpt lat="42.9682" lon="-0.43769">
        <ele>655.756592</ele>
        <time>2011-11-26T09:37:06Z</time>
      </trkpt>
      <trkpt lat="42.96819" lon="-0.43769">
        <ele>655.275879</ele>
        <time>2011-11-26T09:37:11Z</time>
      </trkpt>
      <trkpt lat="42.96811" lon="-0.43774">
        <ele>655.275879</ele>
        <time>2011-11-26T09:37:22Z</time>
      </trkpt>
      <trkpt lat="42.968" lon="-0.43767">
        <ele>654.795166</ele>
        <time>2011-11-26T09:37:39Z</time>
      </trkpt>
      <trkpt lat="42.96791" lon="-0.43761">
        <ele>654.314697</ele>
        <time>2011-11-26T09:37:51Z</time>
      </trkpt>
      <trkpt lat="42.96778" lon="-0.43761">
        <ele>653.833984</ele>
        <time>2011-11-26T09:38:06Z</time>
      </trkpt>
      <trkpt lat="42.96766" lon="-0.43759">
        <ele>652.872559</ele>
        <time>2011-11-26T09:38:21Z</time>
      </trkpt>
      <trkpt lat="42.96751" lon="-0.4377">
        <ele>651.43042</ele>
        <time>2011-11-26T09:38:38Z</time>
      </trkpt>
      <trkpt lat="42.96749" lon="-0.43789">
        <ele>651.911133</ele>
        <time>2011-11-26T09:40:10Z</time>
      </trkpt>
      <trkpt lat="42.9674" lon="-0.43792">
        <ele>651.43042</ele>
        <time>2011-11-26T09:40:22Z</time>
      </trkpt>
      <trkpt lat="42.96748" lon="-0.43796">
        <ele>651.911133</ele>
        <time>2011-11-26T09:40:31Z</time>
      </trkpt>
      <trkpt lat="42.96746" lon="-0.438">
        <ele>651.911133</ele>
        <time>2011-11-26T09:40:45Z</time>
      </trkpt>
      <trkpt lat="42.96728" lon="-0.43804">
        <ele>652.872559</ele>
        <time>2011-11-26T09:41:07Z</time>
      </trkpt>
      <trkpt lat="42.96731" lon="-0.43804">
        <ele>653.833984</ele>
        <time>2011-11-26T09:41:34Z</time>
      </trkpt>
      <trkpt lat="42.96727" lon="-0.43816">
        <ele>653.833984</ele>
        <time>2011-11-26T09:41:47Z</time>
      </trkpt>
      <trkpt lat="42.9672" lon="-0.43814">
        <ele>653.833984</ele>
        <time>2011-11-26T09:41:59Z</time>
      </trkpt>
      <trkpt lat="42.96735" lon="-0.43792">
        <ele>653.833984</ele>
        <time>2011-11-26T09:42:06Z</time>
      </trkpt>
      <trkpt lat="42.9675" lon="-0.43783">
        <ele>654.314697</ele>
        <time>2011-11-26T09:42:16Z</time>
      </trkpt>
      <trkpt lat="42.96758" lon="-0.43776">
        <ele>655.275879</ele>
        <time>2011-11-26T09:42:28Z</time>
      </trkpt>
      <trkpt lat="42.96755" lon="-0.43776">
        <ele>654.314697</ele>
        <time>2011-11-26T09:42:31Z</time>
      </trkpt>
      <trkpt lat="42.96745" lon="-0.43776">
        <ele>654.795166</ele>
        <time>2011-11-26T09:42:40Z</time>
      </trkpt>
      <trkpt lat="42.96748" lon="-0.43783">
        <ele>654.795166</ele>
        <time>2011-11-26T09:42:57Z</time>
      </trkpt>
      <trkpt lat="42.96743" lon="-0.43792">
        <ele>656.717773</ele>
        <time>2011-11-26T09:43:14Z</time>
      </trkpt>
      <trkpt lat="42.9673" lon="-0.43807">
        <ele>655.756592</ele>
        <time>2011-11-26T09:43:28Z</time>
      </trkpt>
      <trkpt lat="42.96712" lon="-0.43804">
        <ele>657.198486</ele>
        <time>2011-11-26T09:43:44Z</time>
      </trkpt>
      <trkpt lat="42.96696" lon="-0.43817">
        <ele>658.159912</ele>
        <time>2011-11-26T09:43:53Z</time>
      </trkpt>
      <trkpt lat="42.96708" lon="-0.43819">
        <ele>656.237061</ele>
        <time>2011-11-26T09:44:12Z</time>
      </trkpt>
      <trkpt lat="42.96707" lon="-0.43822">
        <ele>654.795166</ele>
        <time>2011-11-26T09:44:15Z</time>
      </trkpt>
      <trkpt lat="42.967" lon="-0.43827">
        <ele>652.872559</ele>
        <time>2011-11-26T09:44:24Z</time>
      </trkpt>
      <trkpt lat="42.9669" lon="-0.43844">
        <ele>650.469238</ele>
        <time>2011-11-26T09:44:39Z</time>
      </trkpt>
      <trkpt lat="42.9668" lon="-0.43862">
        <ele>649.988525</ele>
        <time>2011-11-26T09:44:49Z</time>
      </trkpt>
      <trkpt lat="42.96673" lon="-0.43871">
        <ele>647.585205</ele>
        <time>2011-11-26T09:45:00Z</time>
      </trkpt>
      <trkpt lat="42.96667" lon="-0.43876">
        <ele>647.104492</ele>
        <time>2011-11-26T09:45:06Z</time>
      </trkpt>
      <trkpt lat="42.96656" lon="-0.43883">
        <ele>646.624023</ele>
        <time>2011-11-26T09:45:16Z</time>
      </trkpt>
      <trkpt lat="42.96648" lon="-0.43892">
        <ele>646.624023</ele>
        <time>2011-11-26T09:45:28Z</time>
      </trkpt>
      <trkpt lat="42.96646" lon="-0.43894">
        <ele>646.624023</ele>
        <time>2011-11-26T09:45:29Z</time>
      </trkpt>
      <trkpt lat="42.96645" lon="-0.43896">
        <ele>646.624023</ele>
        <time>2011-11-26T09:45:31Z</time>
      </trkpt>
      <trkpt lat="42.96636" lon="-0.43907">
        <ele>642.778809</ele>
        <time>2011-11-26T09:45:43Z</time>
      </trkpt>
      <trkpt lat="42.9663" lon="-0.43921">
        <ele>640.375488</ele>
        <time>2011-11-26T09:46:00Z</time>
      </trkpt>
      <trkpt lat="42.96622" lon="-0.43921">
        <ele>642.778809</ele>
        <time>2011-11-26T09:46:13Z</time>
      </trkpt>
      <trkpt lat="42.9661" lon="-0.43934">
        <ele>640.855957</ele>
        <time>2011-11-26T09:46:26Z</time>
      </trkpt>
      <trkpt lat="42.96598" lon="-0.43939">
        <ele>644.220703</ele>
        <time>2011-11-26T09:46:43Z</time>
      </trkpt>
      <trkpt lat="42.96607" lon="-0.43932">
        <ele>646.624023</ele>
        <time>2011-11-26T09:47:00Z</time>
      </trkpt>
      <trkpt lat="42.96594" lon="-0.43938">
        <ele>646.143311</ele>
        <time>2011-11-26T09:47:12Z</time>
      </trkpt>
      <trkpt lat="42.96584" lon="-0.43947">
        <ele>645.662598</ele>
        <time>2011-11-26T09:47:22Z</time>
      </trkpt>
      <trkpt lat="42.9657" lon="-0.4395">
        <ele>644.701172</ele>
        <time>2011-11-26T09:47:39Z</time>
      </trkpt>
      <trkpt lat="42.96561" lon="-0.43955">
        <ele>644.220703</ele>
        <time>2011-11-26T09:47:54Z</time>
      </trkpt>
      <trkpt lat="42.96539" lon="-0.43961">
        <ele>643.73999</ele>
        <time>2011-11-26T09:48:39Z</time>
      </trkpt>
      <trkpt lat="42.96534" lon="-0.43965">
        <ele>642.298096</ele>
        <time>2011-11-26T09:48:55Z</time>
      </trkpt>
      <trkpt lat="42.96524" lon="-0.4397">
        <ele>641.33667</ele>
        <time>2011-11-26T09:49:05Z</time>
      </trkpt>
      <trkpt lat="42.96512" lon="-0.43974">
        <ele>641.817383</ele>
        <time>2011-11-26T09:49:18Z</time>
      </trkpt>
      <trkpt lat="42.96524" lon="-0.43967">
        <ele>639.894775</ele>
        <time>2011-11-26T09:50:22Z</time>
      </trkpt>
      <trkpt lat="42.96513" lon="-0.43974">
        <ele>639.414062</ele>
        <time>2011-11-26T09:50:53Z</time>
      </trkpt>
      <trkpt lat="42.96508" lon="-0.43967">
        <ele>636.530273</ele>
        <time>2011-11-26T09:52:28Z</time>
      </trkpt>
      <trkpt lat="42.96519" lon="-0.43968">
        <ele>636.530273</ele>
        <time>2011-11-26T09:53:40Z</time>
      </trkpt>
      <trkpt lat="42.96514" lon="-0.43974">
        <ele>636.530273</ele>
        <time>2011-11-26T09:54:04Z</time>
      </trkpt>
      <trkpt lat="42.9652" lon="-0.43994">
        <ele>637.010742</ele>
        <time>2011-11-26T09:54:31Z</time>
      </trkpt>
      <trkpt lat="42.96515" lon="-0.43988">
        <ele>636.530273</ele>
        <time>2011-11-26T09:54:53Z</time>
      </trkpt>
      <trkpt lat="42.96498" lon="-0.43987">
        <ele>636.049561</ele>
        <time>2011-11-26T09:55:05Z</time>
      </trkpt>
      <trkpt lat="42.96459" lon="-0.43998">
        <ele>636.530273</ele>
        <time>2011-11-26T09:55:30Z</time>
      </trkpt>
      <trkpt lat="42.96454" lon="-0.43999">
        <ele>636.530273</ele>
        <time>2011-11-26T09:55:34Z</time>
      </trkpt>
      <trkpt lat="42.96438" lon="-0.44003">
        <ele>637.491455</ele>
        <time>2011-11-26T09:55:46Z</time>
      </trkpt>
      <trkpt lat="42.96429" lon="-0.44004">
        <ele>639.414062</ele>
        <time>2011-11-26T09:55:56Z</time>
      </trkpt>
      <trkpt lat="42.96414" lon="-0.44011">
        <ele>637.972168</ele>
        <time>2011-11-26T09:56:12Z</time>
      </trkpt>
      <trkpt lat="42.96405" lon="-0.44007">
        <ele>638.452881</ele>
        <time>2011-11-26T09:56:23Z</time>
      </trkpt>
      <trkpt lat="42.96402" lon="-0.44003">
        <ele>639.894775</ele>
        <time>2011-11-26T09:56:28Z</time>
      </trkpt>
      <trkpt lat="42.96403" lon="-0.43998">
        <ele>642.778809</ele>
        <time>2011-11-26T09:56:39Z</time>
      </trkpt>
      <trkpt lat="42.96391" lon="-0.43989">
        <ele>644.220703</ele>
        <time>2011-11-26T09:56:53Z</time>
      </trkpt>
      <trkpt lat="42.96383" lon="-0.43988">
        <ele>644.701172</ele>
        <time>2011-11-26T09:57:02Z</time>
      </trkpt>
      <trkpt lat="42.96368" lon="-0.43992">
        <ele>643.259277</ele>
        <time>2011-11-26T09:57:24Z</time>
      </trkpt>
      <trkpt lat="42.96358" lon="-0.44004">
        <ele>639.894775</ele>
        <time>2011-11-26T09:57:38Z</time>
      </trkpt>
      <trkpt lat="42.96353" lon="-0.44003">
        <ele>638.933594</ele>
        <time>2011-11-26T09:57:53Z</time>
      </trkpt>
      <trkpt lat="42.96345" lon="-0.44008">
        <ele>636.530273</ele>
        <time>2011-11-26T09:58:01Z</time>
      </trkpt>
      <trkpt lat="42.96348" lon="-0.44014">
        <ele>638.452881</ele>
        <time>2011-11-26T09:58:27Z</time>
      </trkpt>
      <trkpt lat="42.96363" lon="-0.4401">
        <ele>638.933594</ele>
        <time>2011-11-26T09:58:53Z</time>
      </trkpt>
      <trkpt lat="42.96367" lon="-0.44001">
        <ele>639.414062</ele>
        <time>2011-11-26T09:59:29Z</time>
      </trkpt>
      <trkpt lat="42.96362" lon="-0.44">
        <ele>639.414062</ele>
        <time>2011-11-26T09:59:37Z</time>
      </trkpt>
      <trkpt lat="42.96357" lon="-0.44004">
        <ele>638.933594</ele>
        <time>2011-11-26T09:59:41Z</time>
      </trkpt>
      <trkpt lat="42.96358" lon="-0.44009">
        <ele>640.375488</ele>
        <time>2011-11-26T09:59:58Z</time>
      </trkpt>
      <trkpt lat="42.96357" lon="-0.44005">
        <ele>639.894775</ele>
        <time>2011-11-26T10:00:55Z</time>
      </trkpt>
      <trkpt lat="42.96351" lon="-0.44006">
        <ele>640.375488</ele>
        <time>2011-11-26T10:01:37Z</time>
      </trkpt>
      <trkpt lat="42.96351" lon="-0.44008">
        <ele>639.414062</ele>
        <time>2011-11-26T10:01:57Z</time>
      </trkpt>
      <trkpt lat="42.96349" lon="-0.44009">
        <ele>637.972168</ele>
        <time>2011-11-26T10:02:07Z</time>
      </trkpt>
      <trkpt lat="42.96342" lon="-0.44012">
        <ele>636.530273</ele>
        <time>2011-11-26T10:02:12Z</time>
      </trkpt>
      <trkpt lat="42.9633" lon="-0.44021">
        <ele>635.088135</ele>
        <time>2011-11-26T10:02:24Z</time>
      </trkpt>
      <trkpt lat="42.96335" lon="-0.4403">
        <ele>633.645996</ele>
        <time>2011-11-26T10:02:48Z</time>
      </trkpt>
      <trkpt lat="42.96334" lon="-0.44032">
        <ele>633.645996</ele>
        <time>2011-11-26T10:03:19Z</time>
      </trkpt>
      <trkpt lat="42.96331" lon="-0.4403">
        <ele>633.645996</ele>
        <time>2011-11-26T10:03:30Z</time>
      </trkpt>
      <trkpt lat="42.96325" lon="-0.44028">
        <ele>633.645996</ele>
        <time>2011-11-26T10:03:43Z</time>
      </trkpt>
      <trkpt lat="42.96333" lon="-0.44028">
        <ele>633.645996</ele>
        <time>2011-11-26T10:03:49Z</time>
      </trkpt>
      <trkpt lat="42.96339" lon="-0.44025">
        <ele>633.645996</ele>
        <time>2011-11-26T10:04:05Z</time>
      </trkpt>
      <trkpt lat="42.96341" lon="-0.44017">
        <ele>633.645996</ele>
        <time>2011-11-26T10:05:01Z</time>
      </trkpt>
      <trkpt lat="42.9634" lon="-0.44023">
        <ele>634.126709</ele>
        <time>2011-11-26T10:06:51Z</time>
      </trkpt>
      <trkpt lat="42.96338" lon="-0.44023">
        <ele>634.607422</ele>
        <time>2011-11-26T10:07:11Z</time>
      </trkpt>
      <trkpt lat="42.96347" lon="-0.44008">
        <ele>634.607422</ele>
        <time>2011-11-26T10:07:21Z</time>
      </trkpt>
      <trkpt lat="42.96339" lon="-0.44022">
        <ele>635.568604</ele>
        <time>2011-11-26T10:08:21Z</time>
      </trkpt>
      <trkpt lat="42.96346" lon="-0.44022">
        <ele>636.049561</ele>
        <time>2011-11-26T10:08:28Z</time>
      </trkpt>
      <trkpt lat="42.96358" lon="-0.4402">
        <ele>635.568604</ele>
        <time>2011-11-26T10:08:43Z</time>
      </trkpt>
      <trkpt lat="42.96352" lon="-0.44016">
        <ele>635.568604</ele>
        <time>2011-11-26T10:08:54Z</time>
      </trkpt>
      <trkpt lat="42.96341" lon="-0.44024">
        <ele>636.049561</ele>
        <time>2011-11-26T10:09:07Z</time>
      </trkpt>
      <trkpt lat="42.96334" lon="-0.44025">
        <ele>636.049561</ele>
        <time>2011-11-26T10:09:16Z</time>
      </trkpt>
      <trkpt lat="42.96328" lon="-0.44019">
        <ele>636.530273</ele>
        <time>2011-11-26T10:09:29Z</time>
      </trkpt>
      <trkpt lat="42.96339" lon="-0.4402">
        <ele>636.049561</ele>
        <time>2011-11-26T10:09:45Z</time>
      </trkpt>
      <trkpt lat="42.9633" lon="-0.44024">
        <ele>636.530273</ele>
        <time>2011-11-26T10:10:00Z</time>
      </trkpt>
      <trkpt lat="42.9633" lon="-0.44022">
        <ele>636.049561</ele>
        <time>2011-11-26T10:10:14Z</time>
      </trkpt>
      <trkpt lat="42.96338" lon="-0.44021">
        <ele>637.010742</ele>
        <time>2011-11-26T10:10:24Z</time>
      </trkpt>
      <trkpt lat="42.96339" lon="-0.4402">
        <ele>637.010742</ele>
        <time>2011-11-26T10:10:32Z</time>
      </trkpt>
      <trkpt lat="42.96338" lon="-0.44023">
        <ele>637.010742</ele>
        <time>2011-11-26T10:10:50Z</time>
      </trkpt>
      <trkpt lat="42.9634" lon="-0.44023">
        <ele>637.010742</ele>
        <time>2011-11-26T10:11:07Z</time>
      </trkpt>
      <trkpt lat="42.96337" lon="-0.44024">
        <ele>637.010742</ele>
        <time>2011-11-26T10:11:09Z</time>
      </trkpt>
      <trkpt lat="42.96328" lon="-0.44018">
        <ele>637.010742</ele>
        <time>2011-11-26T10:11:29Z</time>
      </trkpt>
      <trkpt lat="42.96322" lon="-0.44022">
        <ele>637.010742</ele>
        <time>2011-11-26T10:11:45Z</time>
      </trkpt>
      <trkpt lat="42.96327" lon="-0.44031">
        <ele>637.010742</ele>
        <time>2011-11-26T10:11:53Z</time>
      </trkpt>
      <trkpt lat="42.96336" lon="-0.44027">
        <ele>637.491455</ele>
        <time>2011-11-26T10:12:11Z</time>
      </trkpt>
      <trkpt lat="42.96332" lon="-0.44025">
        <ele>636.049561</ele>
        <time>2011-11-26T10:12:57Z</time>
      </trkpt>
      <trkpt lat="42.96322" lon="-0.44025">
        <ele>634.607422</ele>
        <time>2011-11-26T10:13:15Z</time>
      </trkpt>
      <trkpt lat="42.96328" lon="-0.44038">
        <ele>635.568604</ele>
        <time>2011-11-26T10:13:39Z</time>
      </trkpt>
      <trkpt lat="42.96334" lon="-0.44027">
        <ele>636.049561</ele>
        <time>2011-11-26T10:14:18Z</time>
      </trkpt>
      <trkpt lat="42.96336" lon="-0.44024">
        <ele>636.049561</ele>
        <time>2011-11-26T10:15:11Z</time>
      </trkpt>
      <trkpt lat="42.96327" lon="-0.44014">
        <ele>636.530273</ele>
        <time>2011-11-26T10:15:25Z</time>
      </trkpt>
      <trkpt lat="42.96326" lon="-0.44019">
        <ele>637.491455</ele>
        <time>2011-11-26T10:16:29Z</time>
      </trkpt>
      <trkpt lat="42.96328" lon="-0.44019">
        <ele>637.972168</ele>
        <time>2011-11-26T10:17:06Z</time>
      </trkpt>
      <trkpt lat="42.96332" lon="-0.4402">
        <ele>637.972168</ele>
        <time>2011-11-26T10:17:18Z</time>
      </trkpt>
      <trkpt lat="42.9633" lon="-0.44018">
        <ele>637.972168</ele>
        <time>2011-11-26T10:17:32Z</time>
      </trkpt>
      <trkpt lat="42.96329" lon="-0.44025">
        <ele>638.452881</ele>
        <time>2011-11-26T10:17:50Z</time>
      </trkpt>
      <trkpt lat="42.9633" lon="-0.44025">
        <ele>638.452881</ele>
        <time>2011-11-26T10:17:54Z</time>
      </trkpt>
      <trkpt lat="42.96332" lon="-0.44026">
        <ele>638.452881</ele>
        <time>2011-11-26T10:17:56Z</time>
      </trkpt>
      <trkpt lat="42.96338" lon="-0.44027">
        <ele>637.972168</ele>
        <time>2011-11-26T10:18:04Z</time>
      </trkpt>
      <trkpt lat="42.96334" lon="-0.44025">
        <ele>638.933594</ele>
        <time>2011-11-26T10:18:08Z</time>
      </trkpt>
      <trkpt lat="42.96326" lon="-0.44021">
        <ele>637.972168</ele>
        <time>2011-11-26T10:18:30Z</time>
      </trkpt>
      <trkpt lat="42.96332" lon="-0.44015">
        <ele>637.972168</ele>
        <time>2011-11-26T10:19:35Z</time>
      </trkpt>
      <trkpt lat="42.96328" lon="-0.44013">
        <ele>638.933594</ele>
        <time>2011-11-26T10:19:56Z</time>
      </trkpt>
      <trkpt lat="42.96332" lon="-0.44018">
        <ele>638.452881</ele>
        <time>2011-11-26T10:20:09Z</time>
      </trkpt>
      <trkpt lat="42.96331" lon="-0.44016">
        <ele>637.972168</ele>
        <time>2011-11-26T10:20:26Z</time>
      </trkpt>
      <trkpt lat="42.96323" lon="-0.4402">
        <ele>639.894775</ele>
        <time>2011-11-26T10:22:14Z</time>
      </trkpt>
      <trkpt lat="42.96338" lon="-0.44028">
        <ele>638.933594</ele>
        <time>2011-11-26T10:22:33Z</time>
      </trkpt>
      <trkpt lat="42.96336" lon="-0.44028">
        <ele>639.894775</ele>
        <time>2011-11-26T10:22:58Z</time>
      </trkpt>
      <trkpt lat="42.96318" lon="-0.44014">
        <ele>638.452881</ele>
        <time>2011-11-26T10:23:13Z</time>
      </trkpt>
      <trkpt lat="42.96307" lon="-0.44015">
        <ele>636.049561</ele>
        <time>2011-11-26T10:23:26Z</time>
      </trkpt>
      <trkpt lat="42.96298" lon="-0.44017">
        <ele>633.645996</ele>
        <time>2011-11-26T10:23:36Z</time>
      </trkpt>
      <trkpt lat="42.96295" lon="-0.44025">
        <ele>633.165283</ele>
        <time>2011-11-26T10:23:52Z</time>
      </trkpt>
      <trkpt lat="42.96298" lon="-0.4403">
        <ele>632.684814</ele>
        <time>2011-11-26T10:24:23Z</time>
      </trkpt>
      <trkpt lat="42.96298" lon="-0.44029">
        <ele>633.645996</ele>
        <time>2011-11-26T10:24:33Z</time>
      </trkpt>
      <trkpt lat="42.96292" lon="-0.44028">
        <ele>633.165283</ele>
        <time>2011-11-26T10:25:36Z</time>
      </trkpt>
      <trkpt lat="42.9628" lon="-0.44051">
        <ele>632.684814</ele>
        <time>2011-11-26T10:26:36Z</time>
      </trkpt>
      <trkpt lat="42.96286" lon="-0.44022">
        <ele>631.24292</ele>
        <time>2011-11-26T10:27:38Z</time>
      </trkpt>
      <trkpt lat="42.96274" lon="-0.44024">
        <ele>631.24292</ele>
        <time>2011-11-26T10:27:48Z</time>
      </trkpt>
      <trkpt lat="42.96262" lon="-0.44028">
        <ele>631.723389</ele>
        <time>2011-11-26T10:27:58Z</time>
      </trkpt>
      <trkpt lat="42.96248" lon="-0.44026">
        <ele>632.204102</ele>
        <time>2011-11-26T10:28:09Z</time>
      </trkpt>
      <trkpt lat="42.96232" lon="-0.44029">
        <ele>633.165283</ele>
        <time>2011-11-26T10:28:23Z</time>
      </trkpt>
      <trkpt lat="42.96223" lon="-0.44034">
        <ele>633.165283</ele>
        <time>2011-11-26T10:28:31Z</time>
      </trkpt>
      <trkpt lat="42.96204" lon="-0.4404">
        <ele>634.126709</ele>
        <time>2011-11-26T10:28:47Z</time>
      </trkpt>
      <trkpt lat="42.96182" lon="-0.44054">
        <ele>635.088135</ele>
        <time>2011-11-26T10:29:05Z</time>
      </trkpt>
      <trkpt lat="42.96172" lon="-0.44061">
        <ele>636.049561</ele>
        <time>2011-11-26T10:29:21Z</time>
      </trkpt>
      <trkpt lat="42.96171" lon="-0.44067">
        <ele>636.049561</ele>
        <time>2011-11-26T10:29:47Z</time>
      </trkpt>
      <trkpt lat="42.96176" lon="-0.44066">
        <ele>637.010742</ele>
        <time>2011-11-26T10:30:03Z</time>
      </trkpt>
      <trkpt lat="42.96177" lon="-0.44061">
        <ele>636.530273</ele>
        <time>2011-11-26T10:30:22Z</time>
      </trkpt>
      <trkpt lat="42.96176" lon="-0.44056">
        <ele>635.568604</ele>
        <time>2011-11-26T10:31:00Z</time>
      </trkpt>
      <trkpt lat="42.96178" lon="-0.44058">
        <ele>634.607422</ele>
        <time>2011-11-26T10:31:28Z</time>
      </trkpt>
      <trkpt lat="42.96174" lon="-0.44062">
        <ele>634.126709</ele>
        <time>2011-11-26T10:31:54Z</time>
      </trkpt>
      <trkpt lat="42.96165" lon="-0.44059">
        <ele>634.607422</ele>
        <time>2011-11-26T10:32:04Z</time>
      </trkpt>
      <trkpt lat="42.96167" lon="-0.44064">
        <ele>634.607422</ele>
        <time>2011-11-26T10:32:15Z</time>
      </trkpt>
      <trkpt lat="42.96164" lon="-0.44068">
        <ele>634.126709</ele>
        <time>2011-11-26T10:32:32Z</time>
      </trkpt>
      <trkpt lat="42.96159" lon="-0.44074">
        <ele>633.645996</ele>
        <time>2011-11-26T10:32:54Z</time>
      </trkpt>
      <trkpt lat="42.96164" lon="-0.44075">
        <ele>634.126709</ele>
        <time>2011-11-26T10:33:19Z</time>
      </trkpt>
      <trkpt lat="42.96176" lon="-0.44068">
        <ele>633.645996</ele>
        <time>2011-11-26T10:33:35Z</time>
      </trkpt>
      <trkpt lat="42.96172" lon="-0.44071">
        <ele>635.088135</ele>
        <time>2011-11-26T10:33:56Z</time>
      </trkpt>
      <trkpt lat="42.9617" lon="-0.44068">
        <ele>634.607422</ele>
        <time>2011-11-26T10:34:07Z</time>
      </trkpt>
      <trkpt lat="42.96178" lon="-0.44057">
        <ele>634.126709</ele>
        <time>2011-11-26T10:34:33Z</time>
      </trkpt>
      <trkpt lat="42.96175" lon="-0.44069">
        <ele>633.165283</ele>
        <time>2011-11-26T10:34:54Z</time>
      </trkpt>
      <trkpt lat="42.96176" lon="-0.44069">
        <ele>633.165283</ele>
        <time>2011-11-26T10:35:00Z</time>
      </trkpt>
      <trkpt lat="42.96174" lon="-0.44073">
        <ele>633.165283</ele>
        <time>2011-11-26T10:35:03Z</time>
      </trkpt>
      <trkpt lat="42.96168" lon="-0.4407">
        <ele>633.645996</ele>
        <time>2011-11-26T10:35:09Z</time>
      </trkpt>
      <trkpt lat="42.96148" lon="-0.44058">
        <ele>634.607422</ele>
        <time>2011-11-26T10:35:29Z</time>
      </trkpt>
      <trkpt lat="42.96134" lon="-0.44048">
        <ele>634.126709</ele>
        <time>2011-11-26T10:35:44Z</time>
      </trkpt>
      <trkpt lat="42.96124" lon="-0.44044">
        <ele>632.684814</ele>
        <time>2011-11-26T10:35:57Z</time>
      </trkpt>
      <trkpt lat="42.96114" lon="-0.44044">
        <ele>632.204102</ele>
        <time>2011-11-26T10:36:09Z</time>
      </trkpt>
      <trkpt lat="42.9611" lon="-0.44045">
        <ele>631.723389</ele>
        <time>2011-11-26T10:36:33Z</time>
      </trkpt>
      <trkpt lat="42.96103" lon="-0.44048">
        <ele>631.24292</ele>
        <time>2011-11-26T10:36:48Z</time>
      </trkpt>
      <trkpt lat="42.96094" lon="-0.4406">
        <ele>629.800781</ele>
        <time>2011-11-26T10:37:13Z</time>
      </trkpt>
      <trkpt lat="42.96093" lon="-0.44083">
        <ele>630.281494</ele>
        <time>2011-11-26T10:37:32Z</time>
      </trkpt>
      <trkpt lat="42.96091" lon="-0.44072">
        <ele>629.320068</ele>
        <time>2011-11-26T10:37:49Z</time>
      </trkpt>
      <trkpt lat="42.96086" lon="-0.44067">
        <ele>629.320068</ele>
        <time>2011-11-26T10:38:18Z</time>
      </trkpt>
      <trkpt lat="42.96091" lon="-0.44067">
        <ele>629.320068</ele>
        <time>2011-11-26T10:38:33Z</time>
      </trkpt>
      <trkpt lat="42.96103" lon="-0.44065">
        <ele>629.800781</ele>
        <time>2011-11-26T10:39:20Z</time>
      </trkpt>
      <trkpt lat="42.96088" lon="-0.44057">
        <ele>630.281494</ele>
        <time>2011-11-26T10:39:32Z</time>
      </trkpt>
      <trkpt lat="42.96089" lon="-0.44059">
        <ele>630.281494</ele>
        <time>2011-11-26T10:39:55Z</time>
      </trkpt>
      <trkpt lat="42.96088" lon="-0.44076">
        <ele>629.320068</ele>
        <time>2011-11-26T10:40:14Z</time>
      </trkpt>
      <trkpt lat="42.961" lon="-0.44072">
        <ele>630.762207</ele>
        <time>2011-11-26T10:40:39Z</time>
      </trkpt>
      <trkpt lat="42.96092" lon="-0.44044">
        <ele>627.878174</ele>
        <time>2011-11-26T10:41:31Z</time>
      </trkpt>
      <trkpt lat="42.96087" lon="-0.44052">
        <ele>627.878174</ele>
        <time>2011-11-26T10:42:01Z</time>
      </trkpt>
      <trkpt lat="42.96083" lon="-0.44058">
        <ele>628.8396</ele>
        <time>2011-11-26T10:42:55Z</time>
      </trkpt>
      <trkpt lat="42.96094" lon="-0.44054">
        <ele>627.878174</ele>
        <time>2011-11-26T10:48:44Z</time>
      </trkpt>
      <trkpt lat="42.96094" lon="-0.44059">
        <ele>624.513672</ele>
        <time>2011-11-26T10:58:23Z</time>
      </trkpt>
      <trkpt lat="42.96089" lon="-0.4406">
        <ele>625.474854</ele>
        <time>2011-11-26T11:00:55Z</time>
      </trkpt>
      <trkpt lat="42.96111" lon="-0.4404">
        <ele>625.474854</ele>
        <time>2011-11-26T11:04:22Z</time>
      </trkpt>
      <trkpt lat="42.96095" lon="-0.44054">
        <ele>624.994385</ele>
        <time>2011-11-26T11:04:43Z</time>
      </trkpt>
      <trkpt lat="42.96099" lon="-0.44067">
        <ele>624.994385</ele>
        <time>2011-11-26T11:08:13Z</time>
      </trkpt>
      <trkpt lat="42.96092" lon="-0.4406">
        <ele>624.513672</ele>
        <time>2011-11-26T11:11:14Z</time>
      </trkpt>
      <trkpt lat="42.96083" lon="-0.44086">
        <ele>624.513672</ele>
        <time>2011-11-26T11:12:00Z</time>
      </trkpt>
      <trkpt lat="42.96095" lon="-0.44067">
        <ele>625.955566</ele>
        <time>2011-11-26T11:12:32Z</time>
      </trkpt>
      <trkpt lat="42.96098" lon="-0.44059">
        <ele>625.955566</ele>
        <time>2011-11-26T11:12:51Z</time>
      </trkpt>
      <trkpt lat="42.96098" lon="-0.44056">
        <ele>625.955566</ele>
        <time>2011-11-26T11:13:12Z</time>
      </trkpt>
      <trkpt lat="42.96103" lon="-0.44052">
        <ele>625.474854</ele>
        <time>2011-11-26T11:13:52Z</time>
      </trkpt>
      <trkpt lat="42.96097" lon="-0.44064">
        <ele>626.436279</ele>
        <time>2011-11-26T11:14:57Z</time>
      </trkpt>
      <trkpt lat="42.96089" lon="-0.44052">
        <ele>625.474854</ele>
        <time>2011-11-26T11:15:21Z</time>
      </trkpt>
      <trkpt lat="42.96095" lon="-0.44045">
        <ele>627.397705</ele>
        <time>2011-11-26T11:15:42Z</time>
      </trkpt>
      <trkpt lat="42.96091" lon="-0.44041">
        <ele>627.397705</ele>
        <time>2011-11-26T11:15:57Z</time>
      </trkpt>
      <trkpt lat="42.96087" lon="-0.4403">
        <ele>629.320068</ele>
        <time>2011-11-26T11:16:10Z</time>
      </trkpt>
      <trkpt lat="42.96076" lon="-0.44027">
        <ele>629.320068</ele>
        <time>2011-11-26T11:16:23Z</time>
      </trkpt>
      <trkpt lat="42.96066" lon="-0.44028">
        <ele>627.397705</ele>
        <time>2011-11-26T11:16:36Z</time>
      </trkpt>
      <trkpt lat="42.96061" lon="-0.44025">
        <ele>627.878174</ele>
        <time>2011-11-26T11:16:54Z</time>
      </trkpt>
      <trkpt lat="42.96054" lon="-0.44029">
        <ele>627.397705</ele>
        <time>2011-11-26T11:17:23Z</time>
      </trkpt>
      <trkpt lat="42.9606" lon="-0.44024">
        <ele>626.916992</ele>
        <time>2011-11-26T11:17:43Z</time>
      </trkpt>
      <trkpt lat="42.96058" lon="-0.44024">
        <ele>627.397705</ele>
        <time>2011-11-26T11:18:14Z</time>
      </trkpt>
      <trkpt lat="42.96054" lon="-0.44033">
        <ele>626.436279</ele>
        <time>2011-11-26T11:18:32Z</time>
      </trkpt>
      <trkpt lat="42.9605" lon="-0.44027">
        <ele>626.916992</ele>
        <time>2011-11-26T11:20:21Z</time>
      </trkpt>
      <trkpt lat="42.96049" lon="-0.4403">
        <ele>627.397705</ele>
        <time>2011-11-26T11:21:04Z</time>
      </trkpt>
      <trkpt lat="42.96051" lon="-0.44025">
        <ele>628.358887</ele>
        <time>2011-11-26T11:21:48Z</time>
      </trkpt>
      <trkpt lat="42.96043" lon="-0.44024">
        <ele>628.358887</ele>
        <time>2011-11-26T11:22:03Z</time>
      </trkpt>
      <trkpt lat="42.96035" lon="-0.44021">
        <ele>628.358887</ele>
        <time>2011-11-26T11:22:17Z</time>
      </trkpt>
      <trkpt lat="42.96025" lon="-0.44019">
        <ele>628.358887</ele>
        <time>2011-11-26T11:22:28Z</time>
      </trkpt>
      <trkpt lat="42.9602" lon="-0.44014">
        <ele>628.8396</ele>
        <time>2011-11-26T11:22:35Z</time>
      </trkpt>
      <trkpt lat="42.96013" lon="-0.44013">
        <ele>628.358887</ele>
        <time>2011-11-26T11:22:40Z</time>
      </trkpt>
      <trkpt lat="42.96007" lon="-0.44006">
        <ele>630.762207</ele>
        <time>2011-11-26T11:22:56Z</time>
      </trkpt>
      <trkpt lat="42.96006" lon="-0.44006">
        <ele>631.24292</ele>
        <time>2011-11-26T11:22:57Z</time>
      </trkpt>
      <trkpt lat="42.96" lon="-0.44004">
        <ele>631.24292</ele>
        <time>2011-11-26T11:23:06Z</time>
      </trkpt>
      <trkpt lat="42.95987" lon="-0.44005">
        <ele>633.165283</ele>
        <time>2011-11-26T11:23:21Z</time>
      </trkpt>
      <trkpt lat="42.95969" lon="-0.44006">
        <ele>633.165283</ele>
        <time>2011-11-26T11:23:36Z</time>
      </trkpt>
      <trkpt lat="42.95963" lon="-0.44005">
        <ele>633.165283</ele>
        <time>2011-11-26T11:23:43Z</time>
      </trkpt>
      <trkpt lat="42.95958" lon="-0.44007">
        <ele>634.126709</ele>
        <time>2011-11-26T11:23:48Z</time>
      </trkpt>
      <trkpt lat="42.95946" lon="-0.44016">
        <ele>631.723389</ele>
        <time>2011-11-26T11:24:01Z</time>
      </trkpt>
      <trkpt lat="42.95939" lon="-0.44022">
        <ele>631.24292</ele>
        <time>2011-11-26T11:24:10Z</time>
      </trkpt>
      <trkpt lat="42.95929" lon="-0.44031">
        <ele>632.204102</ele>
        <time>2011-11-26T11:24:23Z</time>
      </trkpt>
      <trkpt lat="42.95917" lon="-0.44031">
        <ele>633.165283</ele>
        <time>2011-11-26T11:24:35Z</time>
      </trkpt>
      <trkpt lat="42.95909" lon="-0.44035">
        <ele>633.165283</ele>
        <time>2011-11-26T11:24:44Z</time>
      </trkpt>
      <trkpt lat="42.95897" lon="-0.44032">
        <ele>634.607422</ele>
        <time>2011-11-26T11:24:57Z</time>
      </trkpt>
      <trkpt lat="42.95889" lon="-0.44028">
        <ele>635.568604</ele>
        <time>2011-11-26T11:25:12Z</time>
      </trkpt>
      <trkpt lat="42.95879" lon="-0.44029">
        <ele>636.049561</ele>
        <time>2011-11-26T11:25:25Z</time>
      </trkpt>
      <trkpt lat="42.95859" lon="-0.44034">
        <ele>637.491455</ele>
        <time>2011-11-26T11:25:44Z</time>
      </trkpt>
      <trkpt lat="42.9586" lon="-0.4404">
        <ele>637.972168</ele>
        <time>2011-11-26T11:25:57Z</time>
      </trkpt>
      <trkpt lat="42.95862" lon="-0.44038">
        <ele>637.491455</ele>
        <time>2011-11-26T11:26:34Z</time>
      </trkpt>
      <trkpt lat="42.95858" lon="-0.4404">
        <ele>637.010742</ele>
        <time>2011-11-26T11:26:44Z</time>
      </trkpt>
      <trkpt lat="42.95857" lon="-0.44043">
        <ele>637.010742</ele>
        <time>2011-11-26T11:27:04Z</time>
      </trkpt>
      <trkpt lat="42.95852" lon="-0.44019">
        <ele>636.530273</ele>
        <time>2011-11-26T11:27:45Z</time>
      </trkpt>
      <trkpt lat="42.9584" lon="-0.44015">
        <ele>636.530273</ele>
        <time>2011-11-26T11:28:37Z</time>
      </trkpt>
      <trkpt lat="42.95848" lon="-0.44034">
        <ele>637.010742</ele>
        <time>2011-11-26T11:28:57Z</time>
      </trkpt>
      <trkpt lat="42.95861" lon="-0.44028">
        <ele>637.491455</ele>
        <time>2011-11-26T11:29:24Z</time>
      </trkpt>
      <trkpt lat="42.95859" lon="-0.44031">
        <ele>637.491455</ele>
        <time>2011-11-26T11:29:40Z</time>
      </trkpt>
      <trkpt lat="42.95861" lon="-0.44035">
        <ele>637.010742</ele>
        <time>2011-11-26T11:29:55Z</time>
      </trkpt>
      <trkpt lat="42.95853" lon="-0.44033">
        <ele>637.010742</ele>
        <time>2011-11-26T11:30:13Z</time>
      </trkpt>
      <trkpt lat="42.95849" lon="-0.44034">
        <ele>637.491455</ele>
        <time>2011-11-26T11:30:25Z</time>
      </trkpt>
      <trkpt lat="42.95845" lon="-0.44035">
        <ele>637.010742</ele>
        <time>2011-11-26T11:30:35Z</time>
      </trkpt>
      <trkpt lat="42.95829" lon="-0.44036">
        <ele>637.010742</ele>
        <time>2011-11-26T11:30:52Z</time>
      </trkpt>
      <trkpt lat="42.95814" lon="-0.44036">
        <ele>637.491455</ele>
        <time>2011-11-26T11:31:08Z</time>
      </trkpt>
      <trkpt lat="42.95804" lon="-0.44039">
        <ele>637.491455</ele>
        <time>2011-11-26T11:31:18Z</time>
      </trkpt>
      <trkpt lat="42.95798" lon="-0.44035">
        <ele>637.491455</ele>
        <time>2011-11-26T11:31:22Z</time>
      </trkpt>
      <trkpt lat="42.95781" lon="-0.44034">
        <ele>639.414062</ele>
        <time>2011-11-26T11:31:36Z</time>
      </trkpt>
      <trkpt lat="42.95778" lon="-0.4404">
        <ele>638.933594</ele>
        <time>2011-11-26T11:31:47Z</time>
      </trkpt>
      <trkpt lat="42.95787" lon="-0.44049">
        <ele>639.894775</ele>
        <time>2011-11-26T11:32:05Z</time>
      </trkpt>
      <trkpt lat="42.95796" lon="-0.44044">
        <ele>640.855957</ele>
        <time>2011-11-26T11:32:19Z</time>
      </trkpt>
      <trkpt lat="42.95782" lon="-0.44026">
        <ele>641.33667</ele>
        <time>2011-11-26T11:32:48Z</time>
      </trkpt>
      <trkpt lat="42.95784" lon="-0.44033">
        <ele>640.855957</ele>
        <time>2011-11-26T11:33:00Z</time>
      </trkpt>
      <trkpt lat="42.95792" lon="-0.44054">
        <ele>640.375488</ele>
        <time>2011-11-26T11:33:15Z</time>
      </trkpt>
      <trkpt lat="42.95789" lon="-0.44039">
        <ele>641.33667</ele>
        <time>2011-11-26T11:33:59Z</time>
      </trkpt>
      <trkpt lat="42.95793" lon="-0.44039">
        <ele>642.298096</ele>
        <time>2011-11-26T11:34:41Z</time>
      </trkpt>
      <trkpt lat="42.95788" lon="-0.44036">
        <ele>643.259277</ele>
        <time>2011-11-26T11:35:06Z</time>
      </trkpt>
      <trkpt lat="42.95801" lon="-0.44047">
        <ele>643.73999</ele>
        <time>2011-11-26T11:35:25Z</time>
      </trkpt>
      <trkpt lat="42.95789" lon="-0.44026">
        <ele>643.259277</ele>
        <time>2011-11-26T11:35:52Z</time>
      </trkpt>
      <trkpt lat="42.9578" lon="-0.44028">
        <ele>642.778809</ele>
        <time>2011-11-26T11:35:57Z</time>
      </trkpt>
      <trkpt lat="42.95771" lon="-0.44035">
        <ele>642.778809</ele>
        <time>2011-11-26T11:36:05Z</time>
      </trkpt>
      <trkpt lat="42.95775" lon="-0.44049">
        <ele>641.817383</ele>
        <time>2011-11-26T11:36:13Z</time>
      </trkpt>
      <trkpt lat="42.95781" lon="-0.44052">
        <ele>641.33667</ele>
        <time>2011-11-26T11:36:17Z</time>
      </trkpt>
      <trkpt lat="42.95797" lon="-0.44054">
        <ele>640.855957</ele>
        <time>2011-11-26T11:36:31Z</time>
      </trkpt>
      <trkpt lat="42.95812" lon="-0.44059">
        <ele>641.33667</ele>
        <time>2011-11-26T11:36:45Z</time>
      </trkpt>
      <trkpt lat="42.95822" lon="-0.44043">
        <ele>639.894775</ele>
        <time>2011-11-26T11:37:17Z</time>
      </trkpt>
      <trkpt lat="42.9582" lon="-0.44053">
        <ele>637.010742</ele>
        <time>2011-11-26T11:38:36Z</time>
      </trkpt>
      <trkpt lat="42.9581" lon="-0.44056">
        <ele>637.972168</ele>
        <time>2011-11-26T11:39:18Z</time>
      </trkpt>
      <trkpt lat="42.958" lon="-0.4405">
        <ele>638.452881</ele>
        <time>2011-11-26T11:40:19Z</time>
      </trkpt>
      <trkpt lat="42.95795" lon="-0.44044">
        <ele>638.452881</ele>
        <time>2011-11-26T11:40:36Z</time>
      </trkpt>
      <trkpt lat="42.95781" lon="-0.44046">
        <ele>639.894775</ele>
        <time>2011-11-26T11:40:52Z</time>
      </trkpt>
      <trkpt lat="42.95773" lon="-0.44046">
        <ele>639.414062</ele>
        <time>2011-11-26T11:41:07Z</time>
      </trkpt>
      <trkpt lat="42.95764" lon="-0.44046">
        <ele>640.375488</ele>
        <time>2011-11-26T11:41:16Z</time>
      </trkpt>
      <trkpt lat="42.95762" lon="-0.44046">
        <ele>640.375488</ele>
        <time>2011-11-26T11:41:18Z</time>
      </trkpt>
      <trkpt lat="42.9575" lon="-0.44042">
        <ele>641.817383</ele>
        <time>2011-11-26T11:41:35Z</time>
      </trkpt>
      <trkpt lat="42.9575" lon="-0.44037">
        <ele>642.298096</ele>
        <time>2011-11-26T11:41:50Z</time>
      </trkpt>
      <trkpt lat="42.95757" lon="-0.44031">
        <ele>641.817383</ele>
        <time>2011-11-26T11:41:57Z</time>
      </trkpt>
      <trkpt lat="42.95752" lon="-0.44027">
        <ele>642.298096</ele>
        <time>2011-11-26T11:42:07Z</time>
      </trkpt>
      <trkpt lat="42.95727" lon="-0.44008">
        <ele>642.778809</ele>
        <time>2011-11-26T11:42:29Z</time>
      </trkpt>
      <trkpt lat="42.95705" lon="-0.43989">
        <ele>642.298096</ele>
        <time>2011-11-26T11:42:51Z</time>
      </trkpt>
      <trkpt lat="42.95684" lon="-0.43973">
        <ele>642.298096</ele>
        <time>2011-11-26T11:43:11Z</time>
      </trkpt>
      <trkpt lat="42.95664" lon="-0.43956">
        <ele>641.817383</ele>
        <time>2011-11-26T11:43:32Z</time>
      </trkpt>
      <trkpt lat="42.95645" lon="-0.4394">
        <ele>644.220703</ele>
        <time>2011-11-26T11:43:53Z</time>
      </trkpt>
      <trkpt lat="42.95652" lon="-0.43944">
        <ele>643.73999</ele>
        <time>2011-11-26T11:44:18Z</time>
      </trkpt>
      <trkpt lat="42.95645" lon="-0.43936">
        <ele>642.778809</ele>
        <time>2011-11-26T11:44:56Z</time>
      </trkpt>
      <trkpt lat="42.95646" lon="-0.43936">
        <ele>643.259277</ele>
        <time>2011-11-26T11:45:07Z</time>
      </trkpt>
      <trkpt lat="42.95644" lon="-0.43939">
        <ele>643.259277</ele>
        <time>2011-11-26T11:45:17Z</time>
      </trkpt>
      <trkpt lat="42.95649" lon="-0.43947">
        <ele>643.259277</ele>
        <time>2011-11-26T11:45:29Z</time>
      </trkpt>
      <trkpt lat="42.95651" lon="-0.43937">
        <ele>644.701172</ele>
        <time>2011-11-26T11:45:45Z</time>
      </trkpt>
      <trkpt lat="42.95655" lon="-0.43935">
        <ele>642.778809</ele>
        <time>2011-11-26T11:46:04Z</time>
      </trkpt>
      <trkpt lat="42.95643" lon="-0.43955">
        <ele>645.662598</ele>
        <time>2011-11-26T11:48:50Z</time>
      </trkpt>
      <trkpt lat="42.95625" lon="-0.43968">
        <ele>649.0271</ele>
        <time>2011-11-26T11:50:48Z</time>
      </trkpt>
      <trkpt lat="42.95633" lon="-0.43959">
        <ele>649.988525</ele>
        <time>2011-11-26T11:50:56Z</time>
      </trkpt>
      <trkpt lat="42.95643" lon="-0.43939">
        <ele>650.949707</ele>
        <time>2011-11-26T11:51:13Z</time>
      </trkpt>
      <trkpt lat="42.95643" lon="-0.43937">
        <ele>653.353271</ele>
        <time>2011-11-26T11:51:28Z</time>
      </trkpt>
      <trkpt lat="42.9564" lon="-0.43935">
        <ele>650.949707</ele>
        <time>2011-11-26T11:52:02Z</time>
      </trkpt>
      <trkpt lat="42.95643" lon="-0.43948">
        <ele>650.469238</ele>
        <time>2011-11-26T11:52:12Z</time>
      </trkpt>
      <trkpt lat="42.95641" lon="-0.43944">
        <ele>650.469238</ele>
        <time>2011-11-26T11:52:26Z</time>
      </trkpt>
      <trkpt lat="42.95644" lon="-0.43938">
        <ele>650.949707</ele>
        <time>2011-11-26T11:52:39Z</time>
      </trkpt>
      <trkpt lat="42.95645" lon="-0.43937">
        <ele>651.43042</ele>
        <time>2011-11-26T11:53:02Z</time>
      </trkpt>
      <trkpt lat="42.95645" lon="-0.43936">
        <ele>652.391846</ele>
        <time>2011-11-26T11:53:27Z</time>
      </trkpt>
      <trkpt lat="42.95648" lon="-0.43936">
        <ele>649.507812</ele>
        <time>2011-11-26T11:53:42Z</time>
      </trkpt>
      <trkpt lat="42.95656" lon="-0.43957">
        <ele>649.0271</ele>
        <time>2011-11-26T11:53:57Z</time>
      </trkpt>
      <trkpt lat="42.95674" lon="-0.43956">
        <ele>648.065918</ele>
        <time>2011-11-26T11:54:45Z</time>
      </trkpt>
      <trkpt lat="42.95668" lon="-0.43953">
        <ele>647.585205</ele>
        <time>2011-11-26T11:55:50Z</time>
      </trkpt>
      <trkpt lat="42.95666" lon="-0.4395">
        <ele>647.585205</ele>
        <time>2011-11-26T11:55:55Z</time>
      </trkpt>
      <trkpt lat="42.95655" lon="-0.43942">
        <ele>647.585205</ele>
        <time>2011-11-26T11:56:16Z</time>
      </trkpt>
      <trkpt lat="42.95654" lon="-0.43937">
        <ele>647.585205</ele>
        <time>2011-11-26T11:56:31Z</time>
      </trkpt>
      <trkpt lat="42.95654" lon="-0.43933">
        <ele>647.104492</ele>
        <time>2011-11-26T11:56:43Z</time>
      </trkpt>
      <trkpt lat="42.95656" lon="-0.43923">
        <ele>646.143311</ele>
        <time>2011-11-26T11:57:20Z</time>
      </trkpt>
      <trkpt lat="42.95657" lon="-0.43924">
        <ele>648.546387</ele>
        <time>2011-11-26T11:57:28Z</time>
      </trkpt>
      <trkpt lat="42.95642" lon="-0.43935">
        <ele>650.469238</ele>
        <time>2011-11-26T11:57:58Z</time>
      </trkpt>
      <trkpt lat="42.95635" lon="-0.43934">
        <ele>653.353271</ele>
        <time>2011-11-26T11:58:13Z</time>
      </trkpt>
      <trkpt lat="42.95633" lon="-0.43922">
        <ele>656.717773</ele>
        <time>2011-11-26T11:58:27Z</time>
      </trkpt>
      <trkpt lat="42.95631" lon="-0.43911">
        <ele>660.082275</ele>
        <time>2011-11-26T11:58:38Z</time>
      </trkpt>
      <trkpt lat="42.95625" lon="-0.43904">
        <ele>660.562988</ele>
        <time>2011-11-26T11:58:50Z</time>
      </trkpt>
      <trkpt lat="42.95616" lon="-0.43896">
        <ele>662.966309</ele>
        <time>2011-11-26T11:59:07Z</time>
      </trkpt>
      <trkpt lat="42.95605" lon="-0.4389">
        <ele>665.369629</ele>
        <time>2011-11-26T11:59:21Z</time>
      </trkpt>
      <trkpt lat="42.95602" lon="-0.4389">
        <ele>665.850342</ele>
        <time>2011-11-26T11:59:24Z</time>
      </trkpt>
      <trkpt lat="42.95599" lon="-0.43888">
        <ele>666.330811</ele>
        <time>2011-11-26T11:59:28Z</time>
      </trkpt>
      <trkpt lat="42.95596" lon="-0.43886">
        <ele>667.772705</ele>
        <time>2011-11-26T11:59:34Z</time>
      </trkpt>
      <trkpt lat="42.95589" lon="-0.43878">
        <ele>667.292236</ele>
        <time>2011-11-26T11:59:56Z</time>
      </trkpt>
      <trkpt lat="42.95587" lon="-0.43876">
        <ele>667.292236</ele>
        <time>2011-11-26T12:00:10Z</time>
      </trkpt>
      <trkpt lat="42.95589" lon="-0.43879">
        <ele>666.811523</ele>
        <time>2011-11-26T12:00:46Z</time>
      </trkpt>
      <trkpt lat="42.95592" lon="-0.43881">
        <ele>666.811523</ele>
        <time>2011-11-26T12:01:04Z</time>
      </trkpt>
      <trkpt lat="42.95594" lon="-0.43874">
        <ele>666.330811</ele>
        <time>2011-11-26T12:01:27Z</time>
      </trkpt>
      <trkpt lat="42.95591" lon="-0.43872">
        <ele>666.330811</ele>
        <time>2011-11-26T12:01:30Z</time>
      </trkpt>
      <trkpt lat="42.95581" lon="-0.4387">
        <ele>666.811523</ele>
        <time>2011-11-26T12:01:47Z</time>
      </trkpt>
      <trkpt lat="42.95581" lon="-0.43873">
        <ele>667.292236</ele>
        <time>2011-11-26T12:02:05Z</time>
      </trkpt>
      <trkpt lat="42.95568" lon="-0.43874">
        <ele>667.772705</ele>
        <time>2011-11-26T12:02:20Z</time>
      </trkpt>
      <trkpt lat="42.9556" lon="-0.43872">
        <ele>667.292236</ele>
        <time>2011-11-26T12:02:30Z</time>
      </trkpt>
      <trkpt lat="42.95559" lon="-0.43865">
        <ele>668.734375</ele>
        <time>2011-11-26T12:02:49Z</time>
      </trkpt>
      <trkpt lat="42.95553" lon="-0.43878">
        <ele>670.17627</ele>
        <time>2011-11-26T12:06:20Z</time>
      </trkpt>
      <trkpt lat="42.95552" lon="-0.43896">
        <ele>670.656982</ele>
        <time>2011-11-26T12:06:33Z</time>
      </trkpt>
      <trkpt lat="42.95566" lon="-0.43889">
        <ele>669.695801</ele>
        <time>2011-11-26T12:07:05Z</time>
      </trkpt>
      <trkpt lat="42.95591" lon="-0.43883">
        <ele>668.734375</ele>
        <time>2011-11-26T12:07:19Z</time>
      </trkpt>
      <trkpt lat="42.95594" lon="-0.43884">
        <ele>667.772705</ele>
        <time>2011-11-26T12:07:32Z</time>
      </trkpt>
      <trkpt lat="42.95599" lon="-0.43871">
        <ele>668.253662</ele>
        <time>2011-11-26T12:08:18Z</time>
      </trkpt>
      <trkpt lat="42.9559" lon="-0.4387">
        <ele>668.253662</ele>
        <time>2011-11-26T12:08:23Z</time>
      </trkpt>
      <trkpt lat="42.95583" lon="-0.43874">
        <ele>668.253662</ele>
        <time>2011-11-26T12:08:28Z</time>
      </trkpt>
      <trkpt lat="42.95576" lon="-0.43875">
        <ele>669.215088</ele>
        <time>2011-11-26T12:08:36Z</time>
      </trkpt>
      <trkpt lat="42.95588" lon="-0.43884">
        <ele>668.253662</ele>
        <time>2011-11-26T12:08:54Z</time>
      </trkpt>
      <trkpt lat="42.95587" lon="-0.43881">
        <ele>667.772705</ele>
        <time>2011-11-26T12:09:00Z</time>
      </trkpt>
      <trkpt lat="42.95581" lon="-0.4388">
        <ele>667.772705</ele>
        <time>2011-11-26T12:09:05Z</time>
      </trkpt>
      <trkpt lat="42.95573" lon="-0.43879">
        <ele>668.253662</ele>
        <time>2011-11-26T12:09:13Z</time>
      </trkpt>
      <trkpt lat="42.9556" lon="-0.43879">
        <ele>668.734375</ele>
        <time>2011-11-26T12:09:32Z</time>
      </trkpt>
      <trkpt lat="42.95562" lon="-0.43883">
        <ele>668.253662</ele>
        <time>2011-11-26T12:09:46Z</time>
      </trkpt>
      <trkpt lat="42.95554" lon="-0.43873">
        <ele>668.734375</ele>
        <time>2011-11-26T12:09:56Z</time>
      </trkpt>
      <trkpt lat="42.95538" lon="-0.43894">
        <ele>669.695801</ele>
        <time>2011-11-26T12:10:20Z</time>
      </trkpt>
      <trkpt lat="42.95543" lon="-0.43882">
        <ele>669.695801</ele>
        <time>2011-11-26T12:11:20Z</time>
      </trkpt>
      <trkpt lat="42.95545" lon="-0.43878">
        <ele>670.17627</ele>
        <time>2011-11-26T12:11:52Z</time>
      </trkpt>
      <trkpt lat="42.95534" lon="-0.43873">
        <ele>670.656982</ele>
        <time>2011-11-26T12:12:04Z</time>
      </trkpt>
      <trkpt lat="42.95523" lon="-0.43873">
        <ele>671.618164</ele>
        <time>2011-11-26T12:12:19Z</time>
      </trkpt>
      <trkpt lat="42.9551" lon="-0.43877">
        <ele>671.618164</ele>
        <time>2011-11-26T12:12:31Z</time>
      </trkpt>
      <trkpt lat="42.95507" lon="-0.43881">
        <ele>671.137695</ele>
        <time>2011-11-26T12:12:35Z</time>
      </trkpt>
      <trkpt lat="42.95501" lon="-0.43888">
        <ele>671.137695</ele>
        <time>2011-11-26T12:12:51Z</time>
      </trkpt>
      <trkpt lat="42.955" lon="-0.43897">
        <ele>671.618164</ele>
        <time>2011-11-26T12:12:58Z</time>
      </trkpt>
      <trkpt lat="42.95494" lon="-0.43906">
        <ele>672.57959</ele>
        <time>2011-11-26T12:13:03Z</time>
      </trkpt>
      <trkpt lat="42.95487" lon="-0.43906">
        <ele>672.57959</ele>
        <time>2011-11-26T12:13:21Z</time>
      </trkpt>
      <trkpt lat="42.95485" lon="-0.43907">
        <ele>672.57959</ele>
        <time>2011-11-26T12:13:23Z</time>
      </trkpt>
      <trkpt lat="42.95483" lon="-0.4391">
        <ele>673.060303</ele>
        <time>2011-11-26T12:13:41Z</time>
      </trkpt>
      <trkpt lat="42.95484" lon="-0.4391">
        <ele>673.060303</ele>
        <time>2011-11-26T12:13:54Z</time>
      </trkpt>
      <trkpt lat="42.95491" lon="-0.43911">
        <ele>672.57959</ele>
        <time>2011-11-26T12:14:15Z</time>
      </trkpt>
      <trkpt lat="42.95501" lon="-0.43901">
        <ele>672.098877</ele>
        <time>2011-11-26T12:14:28Z</time>
      </trkpt>
      <trkpt lat="42.95492" lon="-0.43896">
        <ele>672.57959</ele>
        <time>2011-11-26T12:15:08Z</time>
      </trkpt>
      <trkpt lat="42.95492" lon="-0.43903">
        <ele>673.060303</ele>
        <time>2011-11-26T12:15:42Z</time>
      </trkpt>
      <trkpt lat="42.95482" lon="-0.43898">
        <ele>672.098877</ele>
        <time>2011-11-26T12:16:03Z</time>
      </trkpt>
      <trkpt lat="42.95469" lon="-0.43913">
        <ele>673.541016</ele>
        <time>2011-11-26T12:16:16Z</time>
      </trkpt>
      <trkpt lat="42.95473" lon="-0.43909">
        <ele>673.060303</ele>
        <time>2011-11-26T12:16:25Z</time>
      </trkpt>
      <trkpt lat="42.95474" lon="-0.43911">
        <ele>673.060303</ele>
        <time>2011-11-26T12:16:42Z</time>
      </trkpt>
      <trkpt lat="42.95473" lon="-0.43909">
        <ele>673.541016</ele>
        <time>2011-11-26T12:16:45Z</time>
      </trkpt>
      <trkpt lat="42.95454" lon="-0.43908">
        <ele>674.021484</ele>
        <time>2011-11-26T12:17:03Z</time>
      </trkpt>
      <trkpt lat="42.95445" lon="-0.43909">
        <ele>674.502197</ele>
        <time>2011-11-26T12:17:20Z</time>
      </trkpt>
      <trkpt lat="42.95445" lon="-0.43912">
        <ele>674.502197</ele>
        <time>2011-11-26T12:17:43Z</time>
      </trkpt>
      <trkpt lat="42.95422" lon="-0.43908">
        <ele>675.463379</ele>
        <time>2011-11-26T12:18:01Z</time>
      </trkpt>
      <trkpt lat="42.95426" lon="-0.43907">
        <ele>675.463379</ele>
        <time>2011-11-26T12:18:21Z</time>
      </trkpt>
      <trkpt lat="42.95429" lon="-0.43907">
        <ele>675.463379</ele>
        <time>2011-11-26T12:18:23Z</time>
      </trkpt>
      <trkpt lat="42.95445" lon="-0.43917">
        <ele>675.463379</ele>
        <time>2011-11-26T12:18:40Z</time>
      </trkpt>
      <trkpt lat="42.95445" lon="-0.43916">
        <ele>674.021484</ele>
        <time>2011-11-26T12:18:52Z</time>
      </trkpt>
      <trkpt lat="42.95444" lon="-0.43908">
        <ele>674.98291</ele>
        <time>2011-11-26T12:19:12Z</time>
      </trkpt>
      <trkpt lat="42.95432" lon="-0.43912">
        <ele>674.021484</ele>
        <time>2011-11-26T12:19:29Z</time>
      </trkpt>
      <trkpt lat="42.95422" lon="-0.43915">
        <ele>672.57959</ele>
        <time>2011-11-26T12:19:44Z</time>
      </trkpt>
      <trkpt lat="42.95431" lon="-0.43918">
        <ele>673.060303</ele>
        <time>2011-11-26T12:19:55Z</time>
      </trkpt>
      <trkpt lat="42.95436" lon="-0.43921">
        <ele>673.541016</ele>
        <time>2011-11-26T12:20:06Z</time>
      </trkpt>
      <trkpt lat="42.9543" lon="-0.4392">
        <ele>673.541016</ele>
        <time>2011-11-26T12:20:22Z</time>
      </trkpt>
      <trkpt lat="42.95435" lon="-0.43912">
        <ele>673.541016</ele>
        <time>2011-11-26T12:20:34Z</time>
      </trkpt>
      <trkpt lat="42.95435" lon="-0.4391">
        <ele>674.021484</ele>
        <time>2011-11-26T12:21:09Z</time>
      </trkpt>
      <trkpt lat="42.9543" lon="-0.43921">
        <ele>673.541016</ele>
        <time>2011-11-26T12:22:02Z</time>
      </trkpt>
      <trkpt lat="42.95443" lon="-0.43917">
        <ele>674.021484</ele>
        <time>2011-11-26T12:23:24Z</time>
      </trkpt>
      <trkpt lat="42.95441" lon="-0.43915">
        <ele>670.656982</ele>
        <time>2011-11-26T12:23:34Z</time>
      </trkpt>
      <trkpt lat="42.95446" lon="-0.43908">
        <ele>674.021484</ele>
        <time>2011-11-26T12:23:42Z</time>
      </trkpt>
      <trkpt lat="42.95437" lon="-0.43915">
        <ele>673.541016</ele>
        <time>2011-11-26T12:24:52Z</time>
      </trkpt>
      <trkpt lat="42.95435" lon="-0.43914">
        <ele>674.021484</ele>
        <time>2011-11-26T12:25:13Z</time>
      </trkpt>
      <trkpt lat="42.95439" lon="-0.43912">
        <ele>674.021484</ele>
        <time>2011-11-26T12:25:37Z</time>
      </trkpt>
      <trkpt lat="42.95446" lon="-0.4391">
        <ele>673.060303</ele>
        <time>2011-11-26T12:25:46Z</time>
      </trkpt>
      <trkpt lat="42.95449" lon="-0.4391">
        <ele>674.021484</ele>
        <time>2011-11-26T12:25:53Z</time>
      </trkpt>
      <trkpt lat="42.95446" lon="-0.43912">
        <ele>672.57959</ele>
        <time>2011-11-26T12:26:02Z</time>
      </trkpt>
      <trkpt lat="42.95452" lon="-0.43913">
        <ele>673.541016</ele>
        <time>2011-11-26T12:26:06Z</time>
      </trkpt>
      <trkpt lat="42.95459" lon="-0.43912">
        <ele>674.98291</ele>
        <time>2011-11-26T12:26:17Z</time>
      </trkpt>
      <trkpt lat="42.95452" lon="-0.43912">
        <ele>674.98291</ele>
        <time>2011-11-26T12:26:21Z</time>
      </trkpt>
      <trkpt lat="42.95435" lon="-0.43915">
        <ele>674.98291</ele>
        <time>2011-11-26T12:26:36Z</time>
      </trkpt>
      <trkpt lat="42.95426" lon="-0.4392">
        <ele>673.060303</ele>
        <time>2011-11-26T12:26:55Z</time>
      </trkpt>
      <trkpt lat="42.95417" lon="-0.43916">
        <ele>674.98291</ele>
        <time>2011-11-26T12:27:35Z</time>
      </trkpt>
      <trkpt lat="42.95446" lon="-0.43919">
        <ele>673.541016</ele>
        <time>2011-11-26T12:27:54Z</time>
      </trkpt>
      <trkpt lat="42.95434" lon="-0.43915">
        <ele>672.57959</ele>
        <time>2011-11-26T12:29:01Z</time>
      </trkpt>
      <trkpt lat="42.95441" lon="-0.43914">
        <ele>672.57959</ele>
        <time>2011-11-26T12:29:17Z</time>
      </trkpt>
      <trkpt lat="42.95429" lon="-0.43916">
        <ele>671.618164</ele>
        <time>2011-11-26T12:29:30Z</time>
      </trkpt>
      <trkpt lat="42.95413" lon="-0.4392">
        <ele>668.734375</ele>
        <time>2011-11-26T12:29:45Z</time>
      </trkpt>
      <trkpt lat="42.95407" lon="-0.43922">
        <ele>667.772705</ele>
        <time>2011-11-26T12:30:02Z</time>
      </trkpt>
      <trkpt lat="42.95396" lon="-0.43936">
        <ele>668.253662</ele>
        <time>2011-11-26T12:30:29Z</time>
      </trkpt>
      <trkpt lat="42.95378" lon="-0.43938">
        <ele>667.292236</ele>
        <time>2011-11-26T12:30:40Z</time>
      </trkpt>
      <trkpt lat="42.95368" lon="-0.43931">
        <ele>666.811523</ele>
        <time>2011-11-26T12:30:54Z</time>
      </trkpt>
      <trkpt lat="42.95368" lon="-0.43939">
        <ele>666.811523</ele>
        <time>2011-11-26T12:31:18Z</time>
      </trkpt>
      <trkpt lat="42.95367" lon="-0.4396">
        <ele>666.811523</ele>
        <time>2011-11-26T12:31:31Z</time>
      </trkpt>
      <trkpt lat="42.95361" lon="-0.43977">
        <ele>666.811523</ele>
        <time>2011-11-26T12:31:38Z</time>
      </trkpt>
      <trkpt lat="42.95354" lon="-0.43993">
        <ele>666.330811</ele>
        <time>2011-11-26T12:31:56Z</time>
      </trkpt>
      <trkpt lat="42.95367" lon="-0.43985">
        <ele>666.811523</ele>
        <time>2011-11-26T12:32:17Z</time>
      </trkpt>
      <trkpt lat="42.95377" lon="-0.43988">
        <ele>666.811523</ele>
        <time>2011-11-26T12:32:33Z</time>
      </trkpt>
      <trkpt lat="42.95376" lon="-0.43989">
        <ele>666.811523</ele>
        <time>2011-11-26T12:33:41Z</time>
      </trkpt>
      <trkpt lat="42.95356" lon="-0.43992">
        <ele>667.772705</ele>
        <time>2011-11-26T12:34:11Z</time>
      </trkpt>
      <trkpt lat="42.95354" lon="-0.43998">
        <ele>668.253662</ele>
        <time>2011-11-26T12:34:33Z</time>
      </trkpt>
      <trkpt lat="42.95357" lon="-0.43996">
        <ele>667.772705</ele>
        <time>2011-11-26T12:34:56Z</time>
      </trkpt>
      <trkpt lat="42.95363" lon="-0.43997">
        <ele>669.215088</ele>
        <time>2011-11-26T12:35:10Z</time>
      </trkpt>
      <trkpt lat="42.95374" lon="-0.44012">
        <ele>669.215088</ele>
        <time>2011-11-26T12:35:21Z</time>
      </trkpt>
      <trkpt lat="42.95375" lon="-0.44013">
        <ele>668.734375</ele>
        <time>2011-11-26T12:35:22Z</time>
      </trkpt>
      <trkpt lat="42.95381" lon="-0.44027">
        <ele>667.772705</ele>
        <time>2011-11-26T12:35:36Z</time>
      </trkpt>
      <trkpt lat="42.95382" lon="-0.44017">
        <ele>666.811523</ele>
        <time>2011-11-26T12:36:29Z</time>
      </trkpt>
      <trkpt lat="42.95396" lon="-0.4402">
        <ele>667.292236</ele>
        <time>2011-11-26T12:37:01Z</time>
      </trkpt>
      <trkpt lat="42.95387" lon="-0.44013">
        <ele>664.408203</ele>
        <time>2011-11-26T12:38:33Z</time>
      </trkpt>
      <trkpt lat="42.95409" lon="-0.44021">
        <ele>664.408203</ele>
        <time>2011-11-26T12:40:03Z</time>
      </trkpt>
      <trkpt lat="42.95418" lon="-0.44043">
        <ele>661.524414</ele>
        <time>2011-11-26T12:41:54Z</time>
      </trkpt>
      <trkpt lat="42.954" lon="-0.44037">
        <ele>660.562988</ele>
        <time>2011-11-26T12:43:10Z</time>
      </trkpt>
      <trkpt lat="42.95408" lon="-0.44048">
        <ele>660.082275</ele>
        <time>2011-11-26T12:44:17Z</time>
      </trkpt>
      <trkpt lat="42.95379" lon="-0.44032">
        <ele>660.562988</ele>
        <time>2011-11-26T12:45:14Z</time>
      </trkpt>
      <trkpt lat="42.95393" lon="-0.44037">
        <ele>660.082275</ele>
        <time>2011-11-26T12:46:40Z</time>
      </trkpt>
      <trkpt lat="42.95369" lon="-0.4402">
        <ele>659.601807</ele>
        <time>2011-11-26T12:46:57Z</time>
      </trkpt>
      <trkpt lat="42.95383" lon="-0.44033">
        <ele>661.043701</ele>
        <time>2011-11-26T12:47:45Z</time>
      </trkpt>
      <trkpt lat="42.9537" lon="-0.44026">
        <ele>662.485596</ele>
        <time>2011-11-26T12:48:47Z</time>
      </trkpt>
      <trkpt lat="42.95405" lon="-0.4404">
        <ele>662.005127</ele>
        <time>2011-11-26T12:52:17Z</time>
      </trkpt>
      <trkpt lat="42.95394" lon="-0.44034">
        <ele>661.043701</ele>
        <time>2011-11-26T12:53:43Z</time>
      </trkpt>
      <trkpt lat="42.9539" lon="-0.44025">
        <ele>661.043701</ele>
        <time>2011-11-26T12:54:57Z</time>
      </trkpt>
      <trkpt lat="42.95389" lon="-0.44037">
        <ele>662.485596</ele>
        <time>2011-11-26T12:57:13Z</time>
      </trkpt>
      <trkpt lat="42.95387" lon="-0.44024">
        <ele>661.043701</ele>
        <time>2011-11-26T12:58:31Z</time>
      </trkpt>
      <trkpt lat="42.95384" lon="-0.44013">
        <ele>662.005127</ele>
        <time>2011-11-26T12:59:32Z</time>
      </trkpt>
      <trkpt lat="42.95381" lon="-0.44016">
        <ele>663.92749</ele>
        <time>2011-11-26T13:01:13Z</time>
      </trkpt>
      <trkpt lat="42.95391" lon="-0.44023">
        <ele>665.369629</ele>
        <time>2011-11-26T13:03:37Z</time>
      </trkpt>
      <trkpt lat="42.95378" lon="-0.44028">
        <ele>666.330811</ele>
        <time>2011-11-26T13:04:32Z</time>
      </trkpt>
      <trkpt lat="42.95379" lon="-0.44029">
        <ele>665.850342</ele>
        <time>2011-11-26T13:04:50Z</time>
      </trkpt>
      <trkpt lat="42.95383" lon="-0.4403">
        <ele>665.850342</ele>
        <time>2011-11-26T13:05:04Z</time>
      </trkpt>
      <trkpt lat="42.95384" lon="-0.4403">
        <ele>665.369629</ele>
        <time>2011-11-26T13:05:07Z</time>
      </trkpt>
      <trkpt lat="42.95378" lon="-0.44029">
        <ele>664.888916</ele>
        <time>2011-11-26T13:05:22Z</time>
      </trkpt>
      <trkpt lat="42.95377" lon="-0.44029">
        <ele>664.888916</ele>
        <time>2011-11-26T13:05:23Z</time>
      </trkpt>
      <trkpt lat="42.9536" lon="-0.44029">
        <ele>665.850342</ele>
        <time>2011-11-26T13:05:41Z</time>
      </trkpt>
      <trkpt lat="42.9535" lon="-0.44034">
        <ele>667.772705</ele>
        <time>2011-11-26T13:05:57Z</time>
      </trkpt>
      <trkpt lat="42.95343" lon="-0.44036">
        <ele>669.215088</ele>
        <time>2011-11-26T13:06:09Z</time>
      </trkpt>
      <trkpt lat="42.95332" lon="-0.4404">
        <ele>669.695801</ele>
        <time>2011-11-26T13:06:20Z</time>
      </trkpt>
      <trkpt lat="42.9532" lon="-0.44044">
        <ele>669.215088</ele>
        <time>2011-11-26T13:06:31Z</time>
      </trkpt>
      <trkpt lat="42.953" lon="-0.44051">
        <ele>670.656982</ele>
        <time>2011-11-26T13:06:51Z</time>
      </trkpt>
      <trkpt lat="42.95297" lon="-0.44054">
        <ele>671.618164</ele>
        <time>2011-11-26T13:06:55Z</time>
      </trkpt>
      <trkpt lat="42.9529" lon="-0.44059">
        <ele>672.57959</ele>
        <time>2011-11-26T13:07:02Z</time>
      </trkpt>
      <trkpt lat="42.95276" lon="-0.44071">
        <ele>672.57959</ele>
        <time>2011-11-26T13:07:18Z</time>
      </trkpt>
      <trkpt lat="42.95271" lon="-0.44076">
        <ele>673.060303</ele>
        <time>2011-11-26T13:07:25Z</time>
      </trkpt>
      <trkpt lat="42.95266" lon="-0.44086">
        <ele>674.98291</ele>
        <time>2011-11-26T13:07:36Z</time>
      </trkpt>
      <trkpt lat="42.95254" lon="-0.44099">
        <ele>675.944092</ele>
        <time>2011-11-26T13:07:53Z</time>
      </trkpt>
      <trkpt lat="42.95243" lon="-0.44108">
        <ele>674.98291</ele>
        <time>2011-11-26T13:08:07Z</time>
      </trkpt>
      <trkpt lat="42.95232" lon="-0.44115">
        <ele>674.021484</ele>
        <time>2011-11-26T13:08:19Z</time>
      </trkpt>
      <trkpt lat="42.95216" lon="-0.4412">
        <ele>672.57959</ele>
        <time>2011-11-26T13:08:36Z</time>
      </trkpt>
      <trkpt lat="42.95211" lon="-0.44121">
        <ele>673.541016</ele>
        <time>2011-11-26T13:08:57Z</time>
      </trkpt>
      <trkpt lat="42.95199" lon="-0.44132">
        <ele>673.060303</ele>
        <time>2011-11-26T13:09:11Z</time>
      </trkpt>
      <trkpt lat="42.95187" lon="-0.44144">
        <ele>674.502197</ele>
        <time>2011-11-26T13:09:26Z</time>
      </trkpt>
      <trkpt lat="42.95178" lon="-0.4415">
        <ele>675.463379</ele>
        <time>2011-11-26T13:09:38Z</time>
      </trkpt>
      <trkpt lat="42.95159" lon="-0.44158">
        <ele>676.905518</ele>
        <time>2011-11-26T13:09:56Z</time>
      </trkpt>
      <trkpt lat="42.95151" lon="-0.44166">
        <ele>679.308594</ele>
        <time>2011-11-26T13:10:04Z</time>
      </trkpt>
      <trkpt lat="42.95135" lon="-0.4417">
        <ele>679.308594</ele>
        <time>2011-11-26T13:10:22Z</time>
      </trkpt>
      <trkpt lat="42.95123" lon="-0.4417">
        <ele>677.866699</ele>
        <time>2011-11-26T13:10:35Z</time>
      </trkpt>
      <trkpt lat="42.95108" lon="-0.44179">
        <ele>677.38623</ele>
        <time>2011-11-26T13:10:52Z</time>
      </trkpt>
      <trkpt lat="42.95106" lon="-0.44172">
        <ele>677.38623</ele>
        <time>2011-11-26T13:11:10Z</time>
      </trkpt>
      <trkpt lat="42.95106" lon="-0.44181">
        <ele>676.905518</ele>
        <time>2011-11-26T13:11:45Z</time>
      </trkpt>
      <trkpt lat="42.95104" lon="-0.44176">
        <ele>677.38623</ele>
        <time>2011-11-26T13:11:56Z</time>
      </trkpt>
      <trkpt lat="42.95107" lon="-0.44175">
        <ele>677.38623</ele>
        <time>2011-11-26T13:12:15Z</time>
      </trkpt>
      <trkpt lat="42.95112" lon="-0.44181">
        <ele>677.866699</ele>
        <time>2011-11-26T13:12:45Z</time>
      </trkpt>
      <trkpt lat="42.95108" lon="-0.44187">
        <ele>674.502197</ele>
        <time>2011-11-26T13:14:49Z</time>
      </trkpt>
      <trkpt lat="42.95108" lon="-0.44184">
        <ele>674.021484</ele>
        <time>2011-11-26T13:15:13Z</time>
      </trkpt>
      <trkpt lat="42.9511" lon="-0.44181">
        <ele>673.541016</ele>
        <time>2011-11-26T13:15:35Z</time>
      </trkpt>
      <trkpt lat="42.951" lon="-0.44185">
        <ele>672.57959</ele>
        <time>2011-11-26T13:15:52Z</time>
      </trkpt>
      <trkpt lat="42.9508" lon="-0.442">
        <ele>673.060303</ele>
        <time>2011-11-26T13:16:13Z</time>
      </trkpt>
      <trkpt lat="42.95067" lon="-0.44225">
        <ele>674.98291</ele>
        <time>2011-11-26T13:16:34Z</time>
      </trkpt>
      <trkpt lat="42.95065" lon="-0.44245">
        <ele>677.866699</ele>
        <time>2011-11-26T13:16:49Z</time>
      </trkpt>
      <trkpt lat="42.95053" lon="-0.44269">
        <ele>678.828125</ele>
        <time>2011-11-26T13:17:08Z</time>
      </trkpt>
      <trkpt lat="42.95049" lon="-0.44278">
        <ele>678.828125</ele>
        <time>2011-11-26T13:17:17Z</time>
      </trkpt>
      <trkpt lat="42.95035" lon="-0.44293">
        <ele>680.27002</ele>
        <time>2011-11-26T13:17:34Z</time>
      </trkpt>
      <trkpt lat="42.95024" lon="-0.44308">
        <ele>680.750732</ele>
        <time>2011-11-26T13:17:48Z</time>
      </trkpt>
      <trkpt lat="42.95009" lon="-0.44323">
        <ele>681.711914</ele>
        <time>2011-11-26T13:18:05Z</time>
      </trkpt>
      <trkpt lat="42.95003" lon="-0.44327">
        <ele>683.153809</ele>
        <time>2011-11-26T13:18:12Z</time>
      </trkpt>
      <trkpt lat="42.94991" lon="-0.44334">
        <ele>684.115479</ele>
        <time>2011-11-26T13:18:29Z</time>
      </trkpt>
      <trkpt lat="42.94995" lon="-0.44338">
        <ele>684.115479</ele>
        <time>2011-11-26T13:18:46Z</time>
      </trkpt>
      <trkpt lat="42.95008" lon="-0.44335">
        <ele>683.634521</ele>
        <time>2011-11-26T13:19:01Z</time>
      </trkpt>
      <trkpt lat="42.95004" lon="-0.44335">
        <ele>684.115479</ele>
        <time>2011-11-26T13:19:14Z</time>
      </trkpt>
      <trkpt lat="42.95012" lon="-0.44334">
        <ele>683.634521</ele>
        <time>2011-11-26T13:19:40Z</time>
      </trkpt>
      <trkpt lat="42.95007" lon="-0.44338">
        <ele>684.115479</ele>
        <time>2011-11-26T13:19:59Z</time>
      </trkpt>
      <trkpt lat="42.95" lon="-0.44341">
        <ele>684.115479</ele>
        <time>2011-11-26T13:20:14Z</time>
      </trkpt>
      <trkpt lat="42.95001" lon="-0.44342">
        <ele>684.115479</ele>
        <time>2011-11-26T13:20:21Z</time>
      </trkpt>
      <trkpt lat="42.95015" lon="-0.44333">
        <ele>682.67334</ele>
        <time>2011-11-26T13:20:36Z</time>
      </trkpt>
      <trkpt lat="42.95015" lon="-0.44332">
        <ele>682.67334</ele>
        <time>2011-11-26T13:20:40Z</time>
      </trkpt>
      <trkpt lat="42.95007" lon="-0.44332">
        <ele>683.153809</ele>
        <time>2011-11-26T13:20:52Z</time>
      </trkpt>
      <trkpt lat="42.95008" lon="-0.44341">
        <ele>682.67334</ele>
        <time>2011-11-26T13:21:18Z</time>
      </trkpt>
      <trkpt lat="42.94998" lon="-0.4433">
        <ele>682.67334</ele>
        <time>2011-11-26T13:22:07Z</time>
      </trkpt>
      <trkpt lat="42.95" lon="-0.44336">
        <ele>682.67334</ele>
        <time>2011-11-26T13:22:25Z</time>
      </trkpt>
      <trkpt lat="42.95003" lon="-0.44337">
        <ele>683.153809</ele>
        <time>2011-11-26T13:22:44Z</time>
      </trkpt>
      <trkpt lat="42.95017" lon="-0.44333">
        <ele>683.153809</ele>
        <time>2011-11-26T13:23:34Z</time>
      </trkpt>
      <trkpt lat="42.95008" lon="-0.44346">
        <ele>682.67334</ele>
        <time>2011-11-26T13:24:12Z</time>
      </trkpt>
      <trkpt lat="42.95006" lon="-0.44337">
        <ele>681.231445</ele>
        <time>2011-11-26T13:24:45Z</time>
      </trkpt>
      <trkpt lat="42.95003" lon="-0.44337">
        <ele>681.231445</ele>
        <time>2011-11-26T13:25:02Z</time>
      </trkpt>
      <trkpt lat="42.95001" lon="-0.4433">
        <ele>681.711914</ele>
        <time>2011-11-26T13:25:23Z</time>
      </trkpt>
      <trkpt lat="42.94997" lon="-0.44333">
        <ele>682.192627</ele>
        <time>2011-11-26T13:25:26Z</time>
      </trkpt>
      <trkpt lat="42.94986" lon="-0.44341">
        <ele>682.67334</ele>
        <time>2011-11-26T13:25:40Z</time>
      </trkpt>
      <trkpt lat="42.94975" lon="-0.44349">
        <ele>681.711914</ele>
        <time>2011-11-26T13:25:56Z</time>
      </trkpt>
      <trkpt lat="42.94974" lon="-0.44351">
        <ele>680.27002</ele>
        <time>2011-11-26T13:26:15Z</time>
      </trkpt>
      <trkpt lat="42.94973" lon="-0.44353">
        <ele>682.67334</ele>
        <time>2011-11-26T13:26:37Z</time>
      </trkpt>
      <trkpt lat="42.94976" lon="-0.4434">
        <ele>680.750732</ele>
        <time>2011-11-26T13:26:56Z</time>
      </trkpt>
      <trkpt lat="42.94978" lon="-0.4434">
        <ele>681.231445</ele>
        <time>2011-11-26T13:27:55Z</time>
      </trkpt>
      <trkpt lat="42.94976" lon="-0.44337">
        <ele>681.711914</ele>
        <time>2011-11-26T13:28:36Z</time>
      </trkpt>
      <trkpt lat="42.94969" lon="-0.44344">
        <ele>681.711914</ele>
        <time>2011-11-26T13:29:19Z</time>
      </trkpt>
      <trkpt lat="42.94973" lon="-0.44349">
        <ele>683.153809</ele>
        <time>2011-11-26T13:30:08Z</time>
      </trkpt>
      <trkpt lat="42.94977" lon="-0.4435">
        <ele>683.634521</ele>
        <time>2011-11-26T13:30:26Z</time>
      </trkpt>
      <trkpt lat="42.9498" lon="-0.44348">
        <ele>682.192627</ele>
        <time>2011-11-26T13:30:41Z</time>
      </trkpt>
      <trkpt lat="42.94989" lon="-0.44353">
        <ele>683.153809</ele>
        <time>2011-11-26T13:31:08Z</time>
      </trkpt>
      <trkpt lat="42.94979" lon="-0.44348">
        <ele>682.192627</ele>
        <time>2011-11-26T13:31:22Z</time>
      </trkpt>
      <trkpt lat="42.94973" lon="-0.44349">
        <ele>682.192627</ele>
        <time>2011-11-26T13:31:31Z</time>
      </trkpt>
      <trkpt lat="42.94969" lon="-0.44351">
        <ele>683.153809</ele>
        <time>2011-11-26T13:31:45Z</time>
      </trkpt>
      <trkpt lat="42.94962" lon="-0.44347">
        <ele>684.115479</ele>
        <time>2011-11-26T13:31:56Z</time>
      </trkpt>
      <trkpt lat="42.94961" lon="-0.44346">
        <ele>683.634521</ele>
        <time>2011-11-26T13:31:58Z</time>
      </trkpt>
      <trkpt lat="42.94951" lon="-0.4434">
        <ele>682.67334</ele>
        <time>2011-11-26T13:32:17Z</time>
      </trkpt>
      <trkpt lat="42.94941" lon="-0.44326">
        <ele>680.27002</ele>
        <time>2011-11-26T13:32:35Z</time>
      </trkpt>
      <trkpt lat="42.94937" lon="-0.44327">
        <ele>680.750732</ele>
        <time>2011-11-26T13:33:00Z</time>
      </trkpt>
      <trkpt lat="42.94937" lon="-0.44331">
        <ele>681.231445</ele>
        <time>2011-11-26T13:33:21Z</time>
      </trkpt>
      <trkpt lat="42.94939" lon="-0.44328">
        <ele>679.789307</ele>
        <time>2011-11-26T13:33:44Z</time>
      </trkpt>
      <trkpt lat="42.9494" lon="-0.44328">
        <ele>679.789307</ele>
        <time>2011-11-26T13:34:00Z</time>
      </trkpt>
      <trkpt lat="42.94941" lon="-0.44326">
        <ele>680.27002</ele>
        <time>2011-11-26T13:34:21Z</time>
      </trkpt>
      <trkpt lat="42.9494" lon="-0.44326">
        <ele>679.789307</ele>
        <time>2011-11-26T13:34:24Z</time>
      </trkpt>
      <trkpt lat="42.9492" lon="-0.44333">
        <ele>680.750732</ele>
        <time>2011-11-26T13:34:43Z</time>
      </trkpt>
      <trkpt lat="42.94912" lon="-0.44329">
        <ele>681.231445</ele>
        <time>2011-11-26T13:35:01Z</time>
      </trkpt>
      <trkpt lat="42.94912" lon="-0.44326">
        <ele>681.231445</ele>
        <time>2011-11-26T13:35:22Z</time>
      </trkpt>
      <trkpt lat="42.94915" lon="-0.44333">
        <ele>682.192627</ele>
        <time>2011-11-26T13:35:51Z</time>
      </trkpt>
      <trkpt lat="42.94914" lon="-0.44339">
        <ele>681.231445</ele>
        <time>2011-11-26T13:36:04Z</time>
      </trkpt>
      <trkpt lat="42.94919" lon="-0.44328">
        <ele>681.231445</ele>
        <time>2011-11-26T13:36:39Z</time>
      </trkpt>
      <trkpt lat="42.94918" lon="-0.44327">
        <ele>681.711914</ele>
        <time>2011-11-26T13:37:00Z</time>
      </trkpt>
      <trkpt lat="42.94919" lon="-0.44353">
        <ele>680.750732</ele>
        <time>2011-11-26T13:37:23Z</time>
      </trkpt>
      <trkpt lat="42.94914" lon="-0.44337">
        <ele>681.231445</ele>
        <time>2011-11-26T13:38:01Z</time>
      </trkpt>
      <trkpt lat="42.94915" lon="-0.44337">
        <ele>681.231445</ele>
        <time>2011-11-26T13:38:31Z</time>
      </trkpt>
      <trkpt lat="42.94916" lon="-0.44336">
        <ele>680.750732</ele>
        <time>2011-11-26T13:39:01Z</time>
      </trkpt>
      <trkpt lat="42.94918" lon="-0.44336">
        <ele>680.750732</ele>
        <time>2011-11-26T13:40:19Z</time>
      </trkpt>
      <trkpt lat="42.94914" lon="-0.44328">
        <ele>680.27002</ele>
        <time>2011-11-26T13:40:43Z</time>
      </trkpt>
      <trkpt lat="42.94911" lon="-0.44319">
        <ele>680.750732</ele>
        <time>2011-11-26T13:41:06Z</time>
      </trkpt>
      <trkpt lat="42.94907" lon="-0.44315">
        <ele>681.231445</ele>
        <time>2011-11-26T13:41:38Z</time>
      </trkpt>
      <trkpt lat="42.94909" lon="-0.44327">
        <ele>681.231445</ele>
        <time>2011-11-26T13:43:23Z</time>
      </trkpt>
      <trkpt lat="42.94904" lon="-0.44317">
        <ele>681.711914</ele>
        <time>2011-11-26T13:44:56Z</time>
      </trkpt>
      <trkpt lat="42.94899" lon="-0.4431">
        <ele>681.231445</ele>
        <time>2011-11-26T13:46:27Z</time>
      </trkpt>
      <trkpt lat="42.94905" lon="-0.44314">
        <ele>681.231445</ele>
        <time>2011-11-26T13:46:48Z</time>
      </trkpt>
      <trkpt lat="42.949" lon="-0.44328">
        <ele>682.192627</ele>
        <time>2011-11-26T13:47:08Z</time>
      </trkpt>
      <trkpt lat="42.94902" lon="-0.4433">
        <ele>682.192627</ele>
        <time>2011-11-26T13:47:10Z</time>
      </trkpt>
      <trkpt lat="42.9491" lon="-0.44336">
        <ele>681.231445</ele>
        <time>2011-11-26T13:47:19Z</time>
      </trkpt>
      <trkpt lat="42.94928" lon="-0.44333">
        <ele>679.308594</ele>
        <time>2011-11-26T13:47:34Z</time>
      </trkpt>
      <trkpt lat="42.94941" lon="-0.44337">
        <ele>680.27002</ele>
        <time>2011-11-26T13:47:49Z</time>
      </trkpt>
      <trkpt lat="42.94954" lon="-0.44351">
        <ele>682.67334</ele>
        <time>2011-11-26T13:48:04Z</time>
      </trkpt>
      <trkpt lat="42.94958" lon="-0.44351">
        <ele>682.67334</ele>
        <time>2011-11-26T13:48:19Z</time>
      </trkpt>
      <trkpt lat="42.94959" lon="-0.44354">
        <ele>682.67334</ele>
        <time>2011-11-26T13:48:42Z</time>
      </trkpt>
      <trkpt lat="42.94951" lon="-0.4435">
        <ele>682.67334</ele>
        <time>2011-11-26T13:49:06Z</time>
      </trkpt>
      <trkpt lat="42.94953" lon="-0.44346">
        <ele>682.67334</ele>
        <time>2011-11-26T13:49:12Z</time>
      </trkpt>
      <trkpt lat="42.94955" lon="-0.44355">
        <ele>682.192627</ele>
        <time>2011-11-26T13:49:23Z</time>
      </trkpt>
      <trkpt lat="42.94952" lon="-0.44345">
        <ele>682.192627</ele>
        <time>2011-11-26T13:50:10Z</time>
      </trkpt>
      <trkpt lat="42.94944" lon="-0.44345">
        <ele>681.711914</ele>
        <time>2011-11-26T13:50:40Z</time>
      </trkpt>
      <trkpt lat="42.94943" lon="-0.44359">
        <ele>682.67334</ele>
        <time>2011-11-26T13:51:09Z</time>
      </trkpt>
      <trkpt lat="42.94957" lon="-0.44336">
        <ele>682.67334</ele>
        <time>2011-11-26T13:52:18Z</time>
      </trkpt>
      <trkpt lat="42.94957" lon="-0.44351">
        <ele>683.153809</ele>
        <time>2011-11-26T13:53:32Z</time>
      </trkpt>
      <trkpt lat="42.94946" lon="-0.44339">
        <ele>681.711914</ele>
        <time>2011-11-26T13:53:44Z</time>
      </trkpt>
      <trkpt lat="42.94943" lon="-0.44337">
        <ele>681.711914</ele>
        <time>2011-11-26T13:53:47Z</time>
      </trkpt>
      <trkpt lat="42.94942" lon="-0.44325">
        <ele>679.789307</ele>
        <time>2011-11-26T13:54:06Z</time>
      </trkpt>
      <trkpt lat="42.94942" lon="-0.44326">
        <ele>679.789307</ele>
        <time>2011-11-26T13:54:43Z</time>
      </trkpt>
    </trkseg>
  </trk>
</gpx>